<?xml version="1.0" encoding="UTF-8" standalone="no" ?>
<gpx xmlns="http://www.topografix.com/GPX/1/1" xmlns:xsi="http://www.w3.org/2001/XMLSchema-instance" xsi:schemaLocation="http://www.topografix.com/GPX/1/1 http://www.topografix.com/GPX/1/1/gpx.xsd" version="1.1" creator="VisuGPX - https://www.visugpx.com">
  <metadata>
    <name>Pic de l'Aigle et région des lacs</name>
    <desc><![CDATA[Rando effectuée le 22 juin 2015
L'indice IBP d'effort est de 48, (suivant l'échelle de la FFRP) un score compris entre 26 et 50 correspond au niveau 2 qualifié de "ASSEZ FACILE". La randonnée pédestre présente peu de difficulté physique. Ce niveau correspond aux promenades et petites randonnées.

]]></desc>
  </metadata>
  <trk>
    <name><![CDATA[Pic de l'Aigle 22 juin 2015]]></name>
    <cmt><![CDATA[22 juin 2015 09:35:15]]></cmt>
    <trkseg>
      <trkpt lat="46.61751" lon="5.88203">
        <ele>759</ele>
        <time>2015-06-22T07:35:15Z</time>
      </trkpt>
      <trkpt lat="46.61755" lon="5.88201">
        <ele>769</ele>
        <time>2015-06-22T07:35:30Z</time>
      </trkpt>
      <trkpt lat="46.61761" lon="5.88197">
        <ele>771</ele>
        <time>2015-06-22T07:35:48Z</time>
      </trkpt>
      <trkpt lat="46.61761" lon="5.88199">
        <ele>770</ele>
        <time>2015-06-22T07:38:52Z</time>
      </trkpt>
      <trkpt lat="46.61766" lon="5.88198">
        <ele>771</ele>
        <time>2015-06-22T07:39:03Z</time>
      </trkpt>
      <trkpt lat="46.61767" lon="5.882">
        <ele>777</ele>
        <time>2015-06-22T07:39:38Z</time>
      </trkpt>
      <trkpt lat="46.61772" lon="5.88201">
        <ele>778</ele>
        <time>2015-06-22T07:39:46Z</time>
      </trkpt>
      <trkpt lat="46.61781" lon="5.88207">
        <ele>779</ele>
        <time>2015-06-22T07:39:57Z</time>
      </trkpt>
      <trkpt lat="46.61785" lon="5.88205">
        <ele>779</ele>
        <time>2015-06-22T07:40:02Z</time>
      </trkpt>
      <trkpt lat="46.6179" lon="5.88206">
        <ele>779</ele>
        <time>2015-06-22T07:40:07Z</time>
      </trkpt>
      <trkpt lat="46.61794" lon="5.88205">
        <ele>780</ele>
        <time>2015-06-22T07:40:13Z</time>
      </trkpt>
      <trkpt lat="46.61799" lon="5.88208">
        <ele>780</ele>
        <time>2015-06-22T07:40:19Z</time>
      </trkpt>
      <trkpt lat="46.61804" lon="5.88209">
        <ele>780</ele>
        <time>2015-06-22T07:40:25Z</time>
      </trkpt>
      <trkpt lat="46.61806" lon="5.88209">
        <ele>780</ele>
        <time>2015-06-22T07:40:31Z</time>
      </trkpt>
      <trkpt lat="46.61811" lon="5.88205">
        <ele>780</ele>
        <time>2015-06-22T07:40:38Z</time>
      </trkpt>
      <trkpt lat="46.61815" lon="5.88208">
        <ele>778</ele>
        <time>2015-06-22T07:40:44Z</time>
      </trkpt>
      <trkpt lat="46.6182" lon="5.8821">
        <ele>777</ele>
        <time>2015-06-22T07:40:48Z</time>
      </trkpt>
      <trkpt lat="46.6182" lon="5.88202">
        <ele>777</ele>
        <time>2015-06-22T07:40:53Z</time>
      </trkpt>
      <trkpt lat="46.61822" lon="5.88194">
        <ele>777</ele>
        <time>2015-06-22T07:40:58Z</time>
      </trkpt>
      <trkpt lat="46.61825" lon="5.88188">
        <ele>777</ele>
        <time>2015-06-22T07:41:03Z</time>
      </trkpt>
      <trkpt lat="46.61827" lon="5.88181">
        <ele>779</ele>
        <time>2015-06-22T07:41:10Z</time>
      </trkpt>
      <trkpt lat="46.6183" lon="5.88176">
        <ele>779</ele>
        <time>2015-06-22T07:41:16Z</time>
      </trkpt>
      <trkpt lat="46.61835" lon="5.88174">
        <ele>780</ele>
        <time>2015-06-22T07:41:21Z</time>
      </trkpt>
      <trkpt lat="46.61849" lon="5.88177">
        <ele>782</ele>
        <time>2015-06-22T07:41:37Z</time>
      </trkpt>
      <trkpt lat="46.61855" lon="5.88177">
        <ele>782</ele>
        <time>2015-06-22T07:41:42Z</time>
      </trkpt>
      <trkpt lat="46.61859" lon="5.88173">
        <ele>782</ele>
        <time>2015-06-22T07:41:46Z</time>
      </trkpt>
      <trkpt lat="46.61869" lon="5.88169">
        <ele>781</ele>
        <time>2015-06-22T07:41:55Z</time>
      </trkpt>
      <trkpt lat="46.61877" lon="5.8816">
        <ele>779</ele>
        <time>2015-06-22T07:42:09Z</time>
      </trkpt>
      <trkpt lat="46.61881" lon="5.88157">
        <ele>779</ele>
        <time>2015-06-22T07:42:18Z</time>
      </trkpt>
      <trkpt lat="46.61886" lon="5.8816">
        <ele>779</ele>
        <time>2015-06-22T07:42:24Z</time>
      </trkpt>
      <trkpt lat="46.61895" lon="5.88163">
        <ele>776</ele>
        <time>2015-06-22T07:42:36Z</time>
      </trkpt>
      <trkpt lat="46.61899" lon="5.88169">
        <ele>775</ele>
        <time>2015-06-22T07:42:40Z</time>
      </trkpt>
      <trkpt lat="46.619" lon="5.88176">
        <ele>775</ele>
        <time>2015-06-22T07:42:46Z</time>
      </trkpt>
      <trkpt lat="46.61906" lon="5.88212">
        <ele>780</ele>
        <time>2015-06-22T07:43:09Z</time>
      </trkpt>
      <trkpt lat="46.61904" lon="5.88219">
        <ele>781</ele>
        <time>2015-06-22T07:43:14Z</time>
      </trkpt>
      <trkpt lat="46.61902" lon="5.88226">
        <ele>782</ele>
        <time>2015-06-22T07:43:20Z</time>
      </trkpt>
      <trkpt lat="46.61895" lon="5.88238">
        <ele>782</ele>
        <time>2015-06-22T07:43:27Z</time>
      </trkpt>
      <trkpt lat="46.61894" lon="5.88244">
        <ele>783</ele>
        <time>2015-06-22T07:43:33Z</time>
      </trkpt>
      <trkpt lat="46.61894" lon="5.88253">
        <ele>783</ele>
        <time>2015-06-22T07:43:38Z</time>
      </trkpt>
      <trkpt lat="46.61888" lon="5.88265">
        <ele>784</ele>
        <time>2015-06-22T07:43:50Z</time>
      </trkpt>
      <trkpt lat="46.6189" lon="5.88273">
        <ele>784</ele>
        <time>2015-06-22T07:43:54Z</time>
      </trkpt>
      <trkpt lat="46.61887" lon="5.88279">
        <ele>783</ele>
        <time>2015-06-22T07:43:59Z</time>
      </trkpt>
      <trkpt lat="46.61886" lon="5.88287">
        <ele>783</ele>
        <time>2015-06-22T07:44:04Z</time>
      </trkpt>
      <trkpt lat="46.61883" lon="5.88292">
        <ele>783</ele>
        <time>2015-06-22T07:44:08Z</time>
      </trkpt>
      <trkpt lat="46.61868" lon="5.88317">
        <ele>783</ele>
        <time>2015-06-22T07:44:33Z</time>
      </trkpt>
      <trkpt lat="46.61858" lon="5.8834">
        <ele>785</ele>
        <time>2015-06-22T07:44:55Z</time>
      </trkpt>
      <trkpt lat="46.61849" lon="5.88346">
        <ele>785</ele>
        <time>2015-06-22T07:45:05Z</time>
      </trkpt>
      <trkpt lat="46.61827" lon="5.88369">
        <ele>790</ele>
        <time>2015-06-22T07:45:38Z</time>
      </trkpt>
      <trkpt lat="46.61818" lon="5.88373">
        <ele>791</ele>
        <time>2015-06-22T07:45:51Z</time>
      </trkpt>
      <trkpt lat="46.61813" lon="5.88384">
        <ele>792</ele>
        <time>2015-06-22T07:46:02Z</time>
      </trkpt>
      <trkpt lat="46.61813" lon="5.88399">
        <ele>792</ele>
        <time>2015-06-22T07:46:12Z</time>
      </trkpt>
      <trkpt lat="46.6181" lon="5.88416">
        <ele>792</ele>
        <time>2015-06-22T07:46:23Z</time>
      </trkpt>
      <trkpt lat="46.61812" lon="5.88446">
        <ele>792</ele>
        <time>2015-06-22T07:46:42Z</time>
      </trkpt>
      <trkpt lat="46.61812" lon="5.88454">
        <ele>790</ele>
        <time>2015-06-22T07:46:47Z</time>
      </trkpt>
      <trkpt lat="46.6181" lon="5.88461">
        <ele>790</ele>
        <time>2015-06-22T07:46:52Z</time>
      </trkpt>
      <trkpt lat="46.61808" lon="5.88467">
        <ele>790</ele>
        <time>2015-06-22T07:46:57Z</time>
      </trkpt>
      <trkpt lat="46.61805" lon="5.88482">
        <ele>790</ele>
        <time>2015-06-22T07:47:07Z</time>
      </trkpt>
      <trkpt lat="46.61803" lon="5.88489">
        <ele>790</ele>
        <time>2015-06-22T07:47:12Z</time>
      </trkpt>
      <trkpt lat="46.61806" lon="5.88509">
        <ele>790</ele>
        <time>2015-06-22T07:47:25Z</time>
      </trkpt>
      <trkpt lat="46.61805" lon="5.88536">
        <ele>791</ele>
        <time>2015-06-22T07:47:42Z</time>
      </trkpt>
      <trkpt lat="46.6181" lon="5.88547">
        <ele>791</ele>
        <time>2015-06-22T07:47:51Z</time>
      </trkpt>
      <trkpt lat="46.61813" lon="5.8856">
        <ele>790</ele>
        <time>2015-06-22T07:47:58Z</time>
      </trkpt>
      <trkpt lat="46.61804" lon="5.88602">
        <ele>786</ele>
        <time>2015-06-22T07:48:22Z</time>
      </trkpt>
      <trkpt lat="46.61805" lon="5.88615">
        <ele>786</ele>
        <time>2015-06-22T07:48:30Z</time>
      </trkpt>
      <trkpt lat="46.61806" lon="5.88629">
        <ele>786</ele>
        <time>2015-06-22T07:48:37Z</time>
      </trkpt>
      <trkpt lat="46.61813" lon="5.88641">
        <ele>787</ele>
        <time>2015-06-22T07:48:45Z</time>
      </trkpt>
      <trkpt lat="46.61818" lon="5.88653">
        <ele>788</ele>
        <time>2015-06-22T07:48:52Z</time>
      </trkpt>
      <trkpt lat="46.61822" lon="5.88666">
        <ele>788</ele>
        <time>2015-06-22T07:49:01Z</time>
      </trkpt>
      <trkpt lat="46.61824" lon="5.8868">
        <ele>787</ele>
        <time>2015-06-22T07:49:09Z</time>
      </trkpt>
      <trkpt lat="46.61828" lon="5.88692">
        <ele>787</ele>
        <time>2015-06-22T07:49:18Z</time>
      </trkpt>
      <trkpt lat="46.61834" lon="5.88722">
        <ele>783</ele>
        <time>2015-06-22T07:49:39Z</time>
      </trkpt>
      <trkpt lat="46.61833" lon="5.88738">
        <ele>782</ele>
        <time>2015-06-22T07:49:47Z</time>
      </trkpt>
      <trkpt lat="46.61833" lon="5.88745">
        <ele>782</ele>
        <time>2015-06-22T07:49:50Z</time>
      </trkpt>
      <trkpt lat="46.61832" lon="5.88774">
        <ele>780</ele>
        <time>2015-06-22T07:50:05Z</time>
      </trkpt>
      <trkpt lat="46.61834" lon="5.8878">
        <ele>780</ele>
        <time>2015-06-22T07:50:10Z</time>
      </trkpt>
      <trkpt lat="46.61836" lon="5.88787">
        <ele>780</ele>
        <time>2015-06-22T07:50:15Z</time>
      </trkpt>
      <trkpt lat="46.61837" lon="5.88794">
        <ele>779</ele>
        <time>2015-06-22T07:50:19Z</time>
      </trkpt>
      <trkpt lat="46.61837" lon="5.88809">
        <ele>780</ele>
        <time>2015-06-22T07:50:29Z</time>
      </trkpt>
      <trkpt lat="46.61837" lon="5.88816">
        <ele>780</ele>
        <time>2015-06-22T07:50:34Z</time>
      </trkpt>
      <trkpt lat="46.61835" lon="5.88822">
        <ele>780</ele>
        <time>2015-06-22T07:50:38Z</time>
      </trkpt>
      <trkpt lat="46.61833" lon="5.8883">
        <ele>780</ele>
        <time>2015-06-22T07:50:43Z</time>
      </trkpt>
      <trkpt lat="46.61832" lon="5.88836">
        <ele>780</ele>
        <time>2015-06-22T07:50:47Z</time>
      </trkpt>
      <trkpt lat="46.61831" lon="5.88852">
        <ele>778</ele>
        <time>2015-06-22T07:50:56Z</time>
      </trkpt>
      <trkpt lat="46.6183" lon="5.88875">
        <ele>778</ele>
        <time>2015-06-22T07:51:08Z</time>
      </trkpt>
      <trkpt lat="46.6183" lon="5.88883">
        <ele>778</ele>
        <time>2015-06-22T07:51:13Z</time>
      </trkpt>
      <trkpt lat="46.61833" lon="5.88898">
        <ele>779</ele>
        <time>2015-06-22T07:51:21Z</time>
      </trkpt>
      <trkpt lat="46.61832" lon="5.88906">
        <ele>780</ele>
        <time>2015-06-22T07:51:27Z</time>
      </trkpt>
      <trkpt lat="46.6183" lon="5.88912">
        <ele>780</ele>
        <time>2015-06-22T07:51:30Z</time>
      </trkpt>
      <trkpt lat="46.61823" lon="5.88933">
        <ele>780</ele>
        <time>2015-06-22T07:51:42Z</time>
      </trkpt>
      <trkpt lat="46.61814" lon="5.88961">
        <ele>777</ele>
        <time>2015-06-22T07:52:06Z</time>
      </trkpt>
      <trkpt lat="46.61805" lon="5.88967">
        <ele>776</ele>
        <time>2015-06-22T07:52:15Z</time>
      </trkpt>
      <trkpt lat="46.61782" lon="5.88992">
        <ele>775</ele>
        <time>2015-06-22T07:52:39Z</time>
      </trkpt>
      <trkpt lat="46.61773" lon="5.88997">
        <ele>775</ele>
        <time>2015-06-22T07:52:47Z</time>
      </trkpt>
      <trkpt lat="46.61763" lon="5.88995">
        <ele>774</ele>
        <time>2015-06-22T07:52:57Z</time>
      </trkpt>
      <trkpt lat="46.61729" lon="5.88972">
        <ele>776</ele>
        <time>2015-06-22T07:53:29Z</time>
      </trkpt>
      <trkpt lat="46.6172" lon="5.88966">
        <ele>776</ele>
        <time>2015-06-22T07:53:38Z</time>
      </trkpt>
      <trkpt lat="46.61711" lon="5.88962">
        <ele>776</ele>
        <time>2015-06-22T07:53:50Z</time>
      </trkpt>
      <trkpt lat="46.61701" lon="5.88963">
        <ele>777</ele>
        <time>2015-06-22T07:53:58Z</time>
      </trkpt>
      <trkpt lat="46.61664" lon="5.88972">
        <ele>781</ele>
        <time>2015-06-22T07:54:33Z</time>
      </trkpt>
      <trkpt lat="46.61649" lon="5.88989">
        <ele>782</ele>
        <time>2015-06-22T07:54:50Z</time>
      </trkpt>
      <trkpt lat="46.61637" lon="5.89011">
        <ele>785</ele>
        <time>2015-06-22T07:55:08Z</time>
      </trkpt>
      <trkpt lat="46.61631" lon="5.89021">
        <ele>785</ele>
        <time>2015-06-22T07:55:16Z</time>
      </trkpt>
      <trkpt lat="46.61622" lon="5.89089">
        <ele>781</ele>
        <time>2015-06-22T07:55:51Z</time>
      </trkpt>
      <trkpt lat="46.61617" lon="5.891">
        <ele>781</ele>
        <time>2015-06-22T07:55:58Z</time>
      </trkpt>
      <trkpt lat="46.61607" lon="5.89104">
        <ele>780</ele>
        <time>2015-06-22T07:56:09Z</time>
      </trkpt>
      <trkpt lat="46.61589" lon="5.89095">
        <ele>780</ele>
        <time>2015-06-22T07:56:31Z</time>
      </trkpt>
      <trkpt lat="46.61584" lon="5.89092">
        <ele>780</ele>
        <time>2015-06-22T07:56:35Z</time>
      </trkpt>
      <trkpt lat="46.6158" lon="5.89094">
        <ele>780</ele>
        <time>2015-06-22T07:56:39Z</time>
      </trkpt>
      <trkpt lat="46.61576" lon="5.89098">
        <ele>780</ele>
        <time>2015-06-22T07:56:44Z</time>
      </trkpt>
      <trkpt lat="46.61552" lon="5.89105">
        <ele>780</ele>
        <time>2015-06-22T07:57:09Z</time>
      </trkpt>
      <trkpt lat="46.61547" lon="5.89107">
        <ele>779</ele>
        <time>2015-06-22T07:57:14Z</time>
      </trkpt>
      <trkpt lat="46.61538" lon="5.89111">
        <ele>780</ele>
        <time>2015-06-22T07:57:21Z</time>
      </trkpt>
      <trkpt lat="46.61528" lon="5.8911">
        <ele>781</ele>
        <time>2015-06-22T07:57:28Z</time>
      </trkpt>
      <trkpt lat="46.61524" lon="5.89115">
        <ele>781</ele>
        <time>2015-06-22T07:57:34Z</time>
      </trkpt>
      <trkpt lat="46.61518" lon="5.89127">
        <ele>782</ele>
        <time>2015-06-22T07:57:44Z</time>
      </trkpt>
      <trkpt lat="46.61498" lon="5.8914">
        <ele>787</ele>
        <time>2015-06-22T07:58:07Z</time>
      </trkpt>
      <trkpt lat="46.61488" lon="5.89141">
        <ele>787</ele>
        <time>2015-06-22T07:58:21Z</time>
      </trkpt>
      <trkpt lat="46.61484" lon="5.89135">
        <ele>788</ele>
        <time>2015-06-22T07:58:25Z</time>
      </trkpt>
      <trkpt lat="46.6148" lon="5.89131">
        <ele>790</ele>
        <time>2015-06-22T07:58:31Z</time>
      </trkpt>
      <trkpt lat="46.61475" lon="5.8913">
        <ele>791</ele>
        <time>2015-06-22T07:58:39Z</time>
      </trkpt>
      <trkpt lat="46.6147" lon="5.89134">
        <ele>791</ele>
        <time>2015-06-22T07:58:46Z</time>
      </trkpt>
      <trkpt lat="46.61446" lon="5.89136">
        <ele>791</ele>
        <time>2015-06-22T07:59:03Z</time>
      </trkpt>
      <trkpt lat="46.61437" lon="5.8914">
        <ele>791</ele>
        <time>2015-06-22T07:59:13Z</time>
      </trkpt>
      <trkpt lat="46.6143" lon="5.89148">
        <ele>791</ele>
        <time>2015-06-22T07:59:21Z</time>
      </trkpt>
      <trkpt lat="46.61421" lon="5.89151">
        <ele>791</ele>
        <time>2015-06-22T07:59:28Z</time>
      </trkpt>
      <trkpt lat="46.61412" lon="5.89153">
        <ele>792</ele>
        <time>2015-06-22T07:59:39Z</time>
      </trkpt>
      <trkpt lat="46.61407" lon="5.8915">
        <ele>795</ele>
        <time>2015-06-22T08:00:08Z</time>
      </trkpt>
      <trkpt lat="46.61398" lon="5.8916">
        <ele>797</ele>
        <time>2015-06-22T08:00:29Z</time>
      </trkpt>
      <trkpt lat="46.61384" lon="5.8918">
        <ele>797</ele>
        <time>2015-06-22T08:00:49Z</time>
      </trkpt>
      <trkpt lat="46.61369" lon="5.89196">
        <ele>797</ele>
        <time>2015-06-22T08:01:10Z</time>
      </trkpt>
      <trkpt lat="46.61362" lon="5.89205">
        <ele>797</ele>
        <time>2015-06-22T08:01:18Z</time>
      </trkpt>
      <trkpt lat="46.61353" lon="5.8921">
        <ele>798</ele>
        <time>2015-06-22T08:01:26Z</time>
      </trkpt>
      <trkpt lat="46.61338" lon="5.89231">
        <ele>800</ele>
        <time>2015-06-22T08:01:45Z</time>
      </trkpt>
      <trkpt lat="46.61335" lon="5.89238">
        <ele>800</ele>
        <time>2015-06-22T08:01:50Z</time>
      </trkpt>
      <trkpt lat="46.61332" lon="5.89242">
        <ele>801</ele>
        <time>2015-06-22T08:01:54Z</time>
      </trkpt>
      <trkpt lat="46.61327" lon="5.89255">
        <ele>800</ele>
        <time>2015-06-22T08:02:03Z</time>
      </trkpt>
      <trkpt lat="46.61322" lon="5.89266">
        <ele>801</ele>
        <time>2015-06-22T08:02:12Z</time>
      </trkpt>
      <trkpt lat="46.61317" lon="5.89286">
        <ele>803</ele>
        <time>2015-06-22T08:02:33Z</time>
      </trkpt>
      <trkpt lat="46.61313" lon="5.8929">
        <ele>803</ele>
        <time>2015-06-22T08:02:38Z</time>
      </trkpt>
      <trkpt lat="46.6131" lon="5.89304">
        <ele>803</ele>
        <time>2015-06-22T08:02:50Z</time>
      </trkpt>
      <trkpt lat="46.61305" lon="5.8933">
        <ele>806</ele>
        <time>2015-06-22T08:03:15Z</time>
      </trkpt>
      <trkpt lat="46.61305" lon="5.89337">
        <ele>805</ele>
        <time>2015-06-22T08:03:21Z</time>
      </trkpt>
      <trkpt lat="46.61307" lon="5.89343">
        <ele>805</ele>
        <time>2015-06-22T08:03:27Z</time>
      </trkpt>
      <trkpt lat="46.61326" lon="5.89375">
        <ele>804</ele>
        <time>2015-06-22T08:04:02Z</time>
      </trkpt>
      <trkpt lat="46.61331" lon="5.89401">
        <ele>802</ele>
        <time>2015-06-22T08:04:27Z</time>
      </trkpt>
      <trkpt lat="46.61335" lon="5.894">
        <ele>801</ele>
        <time>2015-06-22T08:04:39Z</time>
      </trkpt>
      <trkpt lat="46.61337" lon="5.89419">
        <ele>800</ele>
        <time>2015-06-22T08:06:08Z</time>
      </trkpt>
      <trkpt lat="46.61336" lon="5.89433">
        <ele>803</ele>
        <time>2015-06-22T08:06:19Z</time>
      </trkpt>
      <trkpt lat="46.6133" lon="5.89444">
        <ele>804</ele>
        <time>2015-06-22T08:06:28Z</time>
      </trkpt>
      <trkpt lat="46.61313" lon="5.89455">
        <ele>807</ele>
        <time>2015-06-22T08:06:50Z</time>
      </trkpt>
      <trkpt lat="46.61304" lon="5.89456">
        <ele>809</ele>
        <time>2015-06-22T08:07:03Z</time>
      </trkpt>
      <trkpt lat="46.61286" lon="5.89465">
        <ele>808</ele>
        <time>2015-06-22T08:07:23Z</time>
      </trkpt>
      <trkpt lat="46.6128" lon="5.89475">
        <ele>809</ele>
        <time>2015-06-22T08:07:35Z</time>
      </trkpt>
      <trkpt lat="46.61281" lon="5.89488">
        <ele>811</ele>
        <time>2015-06-22T08:07:48Z</time>
      </trkpt>
      <trkpt lat="46.6129" lon="5.89537">
        <ele>813</ele>
        <time>2015-06-22T08:08:18Z</time>
      </trkpt>
      <trkpt lat="46.61296" lon="5.89548">
        <ele>813</ele>
        <time>2015-06-22T08:08:28Z</time>
      </trkpt>
      <trkpt lat="46.61302" lon="5.89559">
        <ele>813</ele>
        <time>2015-06-22T08:08:37Z</time>
      </trkpt>
      <trkpt lat="46.61309" lon="5.89568">
        <ele>813</ele>
        <time>2015-06-22T08:08:46Z</time>
      </trkpt>
      <trkpt lat="46.61313" lon="5.89581">
        <ele>813</ele>
        <time>2015-06-22T08:08:57Z</time>
      </trkpt>
      <trkpt lat="46.61315" lon="5.89587">
        <ele>813</ele>
        <time>2015-06-22T08:09:01Z</time>
      </trkpt>
      <trkpt lat="46.61323" lon="5.89597">
        <ele>813</ele>
        <time>2015-06-22T08:09:10Z</time>
      </trkpt>
      <trkpt lat="46.61327" lon="5.89611">
        <ele>813</ele>
        <time>2015-06-22T08:09:19Z</time>
      </trkpt>
      <trkpt lat="46.6133" lon="5.89624">
        <ele>813</ele>
        <time>2015-06-22T08:09:27Z</time>
      </trkpt>
      <trkpt lat="46.61334" lon="5.89637">
        <ele>813</ele>
        <time>2015-06-22T08:09:36Z</time>
      </trkpt>
      <trkpt lat="46.61337" lon="5.89651">
        <ele>815</ele>
        <time>2015-06-22T08:09:46Z</time>
      </trkpt>
      <trkpt lat="46.6134" lon="5.89664">
        <ele>815</ele>
        <time>2015-06-22T08:09:54Z</time>
      </trkpt>
      <trkpt lat="46.61338" lon="5.89678">
        <ele>815</ele>
        <time>2015-06-22T08:10:02Z</time>
      </trkpt>
      <trkpt lat="46.61324" lon="5.89713">
        <ele>820</ele>
        <time>2015-06-22T08:10:36Z</time>
      </trkpt>
      <trkpt lat="46.61322" lon="5.89726">
        <ele>821</ele>
        <time>2015-06-22T08:10:43Z</time>
      </trkpt>
      <trkpt lat="46.61301" lon="5.89756">
        <ele>823</ele>
        <time>2015-06-22T08:11:09Z</time>
      </trkpt>
      <trkpt lat="46.61292" lon="5.89759">
        <ele>823</ele>
        <time>2015-06-22T08:11:21Z</time>
      </trkpt>
      <trkpt lat="46.61268" lon="5.89779">
        <ele>821</ele>
        <time>2015-06-22T08:11:50Z</time>
      </trkpt>
      <trkpt lat="46.61234" lon="5.89805">
        <ele>826</ele>
        <time>2015-06-22T08:12:25Z</time>
      </trkpt>
      <trkpt lat="46.61231" lon="5.89818">
        <ele>828</ele>
        <time>2015-06-22T08:12:36Z</time>
      </trkpt>
      <trkpt lat="46.61216" lon="5.89837">
        <ele>828</ele>
        <time>2015-06-22T08:12:57Z</time>
      </trkpt>
      <trkpt lat="46.61192" lon="5.89861">
        <ele>831</ele>
        <time>2015-06-22T08:13:31Z</time>
      </trkpt>
      <trkpt lat="46.61184" lon="5.89867">
        <ele>831</ele>
        <time>2015-06-22T08:13:40Z</time>
      </trkpt>
      <trkpt lat="46.61176" lon="5.89878">
        <ele>831</ele>
        <time>2015-06-22T08:14:00Z</time>
      </trkpt>
      <trkpt lat="46.61169" lon="5.89886">
        <ele>832</ele>
        <time>2015-06-22T08:14:10Z</time>
      </trkpt>
      <trkpt lat="46.61163" lon="5.89897">
        <ele>833</ele>
        <time>2015-06-22T08:14:21Z</time>
      </trkpt>
      <trkpt lat="46.6116" lon="5.8991">
        <ele>834</ele>
        <time>2015-06-22T08:14:39Z</time>
      </trkpt>
      <trkpt lat="46.61156" lon="5.89939">
        <ele>840</ele>
        <time>2015-06-22T08:15:21Z</time>
      </trkpt>
      <trkpt lat="46.61155" lon="5.89952">
        <ele>843</ele>
        <time>2015-06-22T08:15:37Z</time>
      </trkpt>
      <trkpt lat="46.61146" lon="5.89983">
        <ele>845</ele>
        <time>2015-06-22T08:16:07Z</time>
      </trkpt>
      <trkpt lat="46.61143" lon="5.89989">
        <ele>846</ele>
        <time>2015-06-22T08:16:12Z</time>
      </trkpt>
      <trkpt lat="46.61142" lon="5.89996">
        <ele>847</ele>
        <time>2015-06-22T08:16:18Z</time>
      </trkpt>
      <trkpt lat="46.61141" lon="5.9001">
        <ele>847</ele>
        <time>2015-06-22T08:16:27Z</time>
      </trkpt>
      <trkpt lat="46.61135" lon="5.90052">
        <ele>849</ele>
        <time>2015-06-22T08:16:59Z</time>
      </trkpt>
      <trkpt lat="46.61139" lon="5.90055">
        <ele>850</ele>
        <time>2015-06-22T08:17:05Z</time>
      </trkpt>
      <trkpt lat="46.61137" lon="5.90062">
        <ele>851</ele>
        <time>2015-06-22T08:17:11Z</time>
      </trkpt>
      <trkpt lat="46.61132" lon="5.90074">
        <ele>852</ele>
        <time>2015-06-22T08:17:21Z</time>
      </trkpt>
      <trkpt lat="46.61132" lon="5.90081">
        <ele>853</ele>
        <time>2015-06-22T08:17:27Z</time>
      </trkpt>
      <trkpt lat="46.61135" lon="5.90085">
        <ele>854</ele>
        <time>2015-06-22T08:17:32Z</time>
      </trkpt>
      <trkpt lat="46.61139" lon="5.90105">
        <ele>856</ele>
        <time>2015-06-22T08:17:50Z</time>
      </trkpt>
      <trkpt lat="46.61134" lon="5.90118">
        <ele>859</ele>
        <time>2015-06-22T08:18:01Z</time>
      </trkpt>
      <trkpt lat="46.61123" lon="5.9013">
        <ele>860</ele>
        <time>2015-06-22T08:18:20Z</time>
      </trkpt>
      <trkpt lat="46.61108" lon="5.90146">
        <ele>861</ele>
        <time>2015-06-22T08:18:41Z</time>
      </trkpt>
      <trkpt lat="46.61095" lon="5.90164">
        <ele>863</ele>
        <time>2015-06-22T08:19:54Z</time>
      </trkpt>
      <trkpt lat="46.61099" lon="5.90168">
        <ele>864</ele>
        <time>2015-06-22T08:20:06Z</time>
      </trkpt>
      <trkpt lat="46.61105" lon="5.90171">
        <ele>864</ele>
        <time>2015-06-22T08:20:15Z</time>
      </trkpt>
      <trkpt lat="46.61111" lon="5.90167">
        <ele>864</ele>
        <time>2015-06-22T08:20:23Z</time>
      </trkpt>
      <trkpt lat="46.61126" lon="5.90163">
        <ele>862</ele>
        <time>2015-06-22T08:20:36Z</time>
      </trkpt>
      <trkpt lat="46.61136" lon="5.90159">
        <ele>862</ele>
        <time>2015-06-22T08:20:45Z</time>
      </trkpt>
      <trkpt lat="46.61141" lon="5.90148">
        <ele>862</ele>
        <time>2015-06-22T08:20:55Z</time>
      </trkpt>
      <trkpt lat="46.61149" lon="5.90142">
        <ele>863</ele>
        <time>2015-06-22T08:21:09Z</time>
      </trkpt>
      <trkpt lat="46.61157" lon="5.90149">
        <ele>864</ele>
        <time>2015-06-22T08:21:19Z</time>
      </trkpt>
      <trkpt lat="46.61166" lon="5.90146">
        <ele>866</ele>
        <time>2015-06-22T08:21:33Z</time>
      </trkpt>
      <trkpt lat="46.61175" lon="5.90143">
        <ele>867</ele>
        <time>2015-06-22T08:21:45Z</time>
      </trkpt>
      <trkpt lat="46.61182" lon="5.90132">
        <ele>869</ele>
        <time>2015-06-22T08:21:58Z</time>
      </trkpt>
      <trkpt lat="46.61191" lon="5.90128">
        <ele>872</ele>
        <time>2015-06-22T08:22:14Z</time>
      </trkpt>
      <trkpt lat="46.61199" lon="5.90133">
        <ele>879</ele>
        <time>2015-06-22T08:22:26Z</time>
      </trkpt>
      <trkpt lat="46.61207" lon="5.90121">
        <ele>879</ele>
        <time>2015-06-22T08:22:47Z</time>
      </trkpt>
      <trkpt lat="46.61211" lon="5.90135">
        <ele>878</ele>
        <time>2015-06-22T08:23:13Z</time>
      </trkpt>
      <trkpt lat="46.61205" lon="5.90146">
        <ele>880</ele>
        <time>2015-06-22T08:23:35Z</time>
      </trkpt>
      <trkpt lat="46.61213" lon="5.90147">
        <ele>889</ele>
        <time>2015-06-22T08:24:07Z</time>
      </trkpt>
      <trkpt lat="46.61222" lon="5.90145">
        <ele>890</ele>
        <time>2015-06-22T08:24:18Z</time>
      </trkpt>
      <trkpt lat="46.61228" lon="5.90135">
        <ele>893</ele>
        <time>2015-06-22T08:24:34Z</time>
      </trkpt>
      <trkpt lat="46.61231" lon="5.90147">
        <ele>892</ele>
        <time>2015-06-22T08:24:51Z</time>
      </trkpt>
      <trkpt lat="46.61234" lon="5.9016">
        <ele>893</ele>
        <time>2015-06-22T08:25:08Z</time>
      </trkpt>
      <trkpt lat="46.61234" lon="5.90173">
        <ele>898</ele>
        <time>2015-06-22T08:25:26Z</time>
      </trkpt>
      <trkpt lat="46.61241" lon="5.90172">
        <ele>902</ele>
        <time>2015-06-22T08:25:45Z</time>
      </trkpt>
      <trkpt lat="46.61266" lon="5.9015">
        <ele>907</ele>
        <time>2015-06-22T08:26:39Z</time>
      </trkpt>
      <trkpt lat="46.61273" lon="5.90163">
        <ele>908</ele>
        <time>2015-06-22T08:26:58Z</time>
      </trkpt>
      <trkpt lat="46.61276" lon="5.90176">
        <ele>909</ele>
        <time>2015-06-22T08:27:18Z</time>
      </trkpt>
      <trkpt lat="46.61283" lon="5.90184">
        <ele>911</ele>
        <time>2015-06-22T08:27:32Z</time>
      </trkpt>
      <trkpt lat="46.61286" lon="5.90201">
        <ele>915</ele>
        <time>2015-06-22T08:27:52Z</time>
      </trkpt>
      <trkpt lat="46.61284" lon="5.90209">
        <ele>921</ele>
        <time>2015-06-22T08:28:06Z</time>
      </trkpt>
      <trkpt lat="46.61279" lon="5.90211">
        <ele>922</ele>
        <time>2015-06-22T08:28:16Z</time>
      </trkpt>
      <trkpt lat="46.61283" lon="5.90217">
        <ele>924</ele>
        <time>2015-06-22T08:28:43Z</time>
      </trkpt>
      <trkpt lat="46.61297" lon="5.902">
        <ele>924</ele>
        <time>2015-06-22T08:29:02Z</time>
      </trkpt>
      <trkpt lat="46.61305" lon="5.90197">
        <ele>920</ele>
        <time>2015-06-22T08:29:21Z</time>
      </trkpt>
      <trkpt lat="46.61311" lon="5.90207">
        <ele>922</ele>
        <time>2015-06-22T08:29:46Z</time>
      </trkpt>
      <trkpt lat="46.61321" lon="5.9021">
        <ele>926</ele>
        <time>2015-06-22T08:29:58Z</time>
      </trkpt>
      <trkpt lat="46.61331" lon="5.90234">
        <ele>932</ele>
        <time>2015-06-22T08:30:21Z</time>
      </trkpt>
      <trkpt lat="46.61335" lon="5.90246">
        <ele>934</ele>
        <time>2015-06-22T08:30:33Z</time>
      </trkpt>
      <trkpt lat="46.61344" lon="5.90251">
        <ele>935</ele>
        <time>2015-06-22T08:30:46Z</time>
      </trkpt>
      <trkpt lat="46.61352" lon="5.90257">
        <ele>935</ele>
        <time>2015-06-22T08:31:00Z</time>
      </trkpt>
      <trkpt lat="46.61375" lon="5.90281">
        <ele>933</ele>
        <time>2015-06-22T08:31:40Z</time>
      </trkpt>
      <trkpt lat="46.6138" lon="5.90291">
        <ele>933</ele>
        <time>2015-06-22T08:31:51Z</time>
      </trkpt>
      <trkpt lat="46.61381" lon="5.90298">
        <ele>934</ele>
        <time>2015-06-22T08:32:02Z</time>
      </trkpt>
      <trkpt lat="46.61374" lon="5.90302">
        <ele>942</ele>
        <time>2015-06-22T08:34:44Z</time>
      </trkpt>
      <trkpt lat="46.61381" lon="5.90306">
        <ele>943</ele>
        <time>2015-06-22T08:35:08Z</time>
      </trkpt>
      <trkpt lat="46.6139" lon="5.90301">
        <ele>943</ele>
        <time>2015-06-22T08:35:19Z</time>
      </trkpt>
      <trkpt lat="46.6139" lon="5.90293">
        <ele>944</ele>
        <time>2015-06-22T08:35:37Z</time>
      </trkpt>
      <trkpt lat="46.61394" lon="5.90285">
        <ele>944</ele>
        <time>2015-06-22T08:36:42Z</time>
      </trkpt>
      <trkpt lat="46.61417" lon="5.90276">
        <ele>948</ele>
        <time>2015-06-22T08:37:27Z</time>
      </trkpt>
      <trkpt lat="46.61421" lon="5.90273">
        <ele>945</ele>
        <time>2015-06-22T08:37:55Z</time>
      </trkpt>
      <trkpt lat="46.61426" lon="5.90285">
        <ele>945</ele>
        <time>2015-06-22T08:38:24Z</time>
      </trkpt>
      <trkpt lat="46.61431" lon="5.90278">
        <ele>946</ele>
        <time>2015-06-22T08:38:39Z</time>
      </trkpt>
      <trkpt lat="46.61436" lon="5.90281">
        <ele>951</ele>
        <time>2015-06-22T08:39:05Z</time>
      </trkpt>
      <trkpt lat="46.61437" lon="5.90267">
        <ele>953</ele>
        <time>2015-06-22T08:39:29Z</time>
      </trkpt>
      <trkpt lat="46.61438" lon="5.90253">
        <ele>954</ele>
        <time>2015-06-22T08:39:43Z</time>
      </trkpt>
      <trkpt lat="46.61441" lon="5.90245">
        <ele>958</ele>
        <time>2015-06-22T08:40:04Z</time>
      </trkpt>
      <trkpt lat="46.6147" lon="5.90213">
        <ele>970</ele>
        <time>2015-06-22T08:42:08Z</time>
      </trkpt>
      <trkpt lat="46.61468" lon="5.90206">
        <ele>973</ele>
        <time>2015-06-22T08:42:23Z</time>
      </trkpt>
      <trkpt lat="46.61464" lon="5.90202">
        <ele>978</ele>
        <time>2015-06-22T08:42:32Z</time>
      </trkpt>
      <trkpt lat="46.61462" lon="5.90203">
        <ele>982</ele>
        <time>2015-06-22T08:43:52Z</time>
      </trkpt>
      <trkpt lat="46.6146" lon="5.90211">
        <ele>984</ele>
        <time>2015-06-22T08:44:07Z</time>
      </trkpt>
      <trkpt lat="46.61462" lon="5.90208">
        <ele>988</ele>
        <time>2015-06-22T08:44:34Z</time>
      </trkpt>
      <trkpt lat="46.61464" lon="5.90196">
        <ele>990</ele>
        <time>2015-06-22T08:44:57Z</time>
      </trkpt>
      <trkpt lat="46.61465" lon="5.90201">
        <ele>997</ele>
        <time>2015-06-22T08:46:10Z</time>
      </trkpt>
      <trkpt lat="46.61469" lon="5.90202">
        <ele>997</ele>
        <time>2015-06-22T08:46:17Z</time>
      </trkpt>
      <trkpt lat="46.61476" lon="5.90211">
        <ele>987</ele>
        <time>2015-06-22T08:46:33Z</time>
      </trkpt>
      <trkpt lat="46.61477" lon="5.90217">
        <ele>985</ele>
        <time>2015-06-22T08:46:40Z</time>
      </trkpt>
      <trkpt lat="46.61477" lon="5.90224">
        <ele>985</ele>
        <time>2015-06-22T08:46:45Z</time>
      </trkpt>
      <trkpt lat="46.61477" lon="5.90231">
        <ele>986</ele>
        <time>2015-06-22T08:46:52Z</time>
      </trkpt>
      <trkpt lat="46.6148" lon="5.90232">
        <ele>987</ele>
        <time>2015-06-22T08:47:03Z</time>
      </trkpt>
      <trkpt lat="46.6149" lon="5.90227">
        <ele>992</ele>
        <time>2015-06-22T08:48:10Z</time>
      </trkpt>
      <trkpt lat="46.61494" lon="5.90227">
        <ele>992</ele>
        <time>2015-06-22T08:48:11Z</time>
      </trkpt>
      <trkpt lat="46.61492" lon="5.90223">
        <ele>998</ele>
        <time>2015-06-22T08:48:45Z</time>
      </trkpt>
      <trkpt lat="46.6149" lon="5.9022">
        <ele>992</ele>
        <time>2015-06-22T08:50:17Z</time>
      </trkpt>
      <trkpt lat="46.61491" lon="5.90214">
        <ele>992</ele>
        <time>2015-06-22T08:51:43Z</time>
      </trkpt>
      <trkpt lat="46.6149" lon="5.90218">
        <ele>991</ele>
        <time>2015-06-22T08:52:17Z</time>
      </trkpt>
      <trkpt lat="46.6149" lon="5.90233">
        <ele>991</ele>
        <time>2015-06-22T08:52:28Z</time>
      </trkpt>
      <trkpt lat="46.61491" lon="5.9024">
        <ele>995</ele>
        <time>2015-06-22T08:52:33Z</time>
      </trkpt>
      <trkpt lat="46.61494" lon="5.9024">
        <ele>997</ele>
        <time>2015-06-22T08:52:40Z</time>
      </trkpt>
      <trkpt lat="46.61498" lon="5.90243">
        <ele>997</ele>
        <time>2015-06-22T08:52:46Z</time>
      </trkpt>
      <trkpt lat="46.61502" lon="5.90249">
        <ele>998</ele>
        <time>2015-06-22T08:52:52Z</time>
      </trkpt>
      <trkpt lat="46.61506" lon="5.90254">
        <ele>998</ele>
        <time>2015-06-22T08:52:56Z</time>
      </trkpt>
      <trkpt lat="46.6151" lon="5.90257">
        <ele>998</ele>
        <time>2015-06-22T08:53:02Z</time>
      </trkpt>
      <trkpt lat="46.61511" lon="5.90263">
        <ele>998</ele>
        <time>2015-06-22T08:53:10Z</time>
      </trkpt>
      <trkpt lat="46.61517" lon="5.90277">
        <ele>997</ele>
        <time>2015-06-22T08:53:31Z</time>
      </trkpt>
      <trkpt lat="46.61523" lon="5.90287">
        <ele>996</ele>
        <time>2015-06-22T08:53:42Z</time>
      </trkpt>
      <trkpt lat="46.61526" lon="5.90293">
        <ele>996</ele>
        <time>2015-06-22T08:53:56Z</time>
      </trkpt>
      <trkpt lat="46.61533" lon="5.90303">
        <ele>996</ele>
        <time>2015-06-22T08:54:09Z</time>
      </trkpt>
      <trkpt lat="46.61541" lon="5.90309">
        <ele>995</ele>
        <time>2015-06-22T08:54:18Z</time>
      </trkpt>
      <trkpt lat="46.61556" lon="5.90328">
        <ele>996</ele>
        <time>2015-06-22T08:54:42Z</time>
      </trkpt>
      <trkpt lat="46.61562" lon="5.90339">
        <ele>996</ele>
        <time>2015-06-22T08:54:55Z</time>
      </trkpt>
      <trkpt lat="46.61578" lon="5.90354">
        <ele>993</ele>
        <time>2015-06-22T08:55:17Z</time>
      </trkpt>
      <trkpt lat="46.6159" lon="5.90376">
        <ele>990</ele>
        <time>2015-06-22T08:55:36Z</time>
      </trkpt>
      <trkpt lat="46.61597" lon="5.90384">
        <ele>990</ele>
        <time>2015-06-22T08:55:44Z</time>
      </trkpt>
      <trkpt lat="46.61604" lon="5.90395">
        <ele>990</ele>
        <time>2015-06-22T08:55:54Z</time>
      </trkpt>
      <trkpt lat="46.61626" lon="5.90418">
        <ele>987</ele>
        <time>2015-06-22T08:56:30Z</time>
      </trkpt>
      <trkpt lat="46.61642" lon="5.90433">
        <ele>987</ele>
        <time>2015-06-22T08:56:50Z</time>
      </trkpt>
      <trkpt lat="46.61649" lon="5.90443">
        <ele>987</ele>
        <time>2015-06-22T08:56:59Z</time>
      </trkpt>
      <trkpt lat="46.61658" lon="5.90448">
        <ele>987</ele>
        <time>2015-06-22T08:57:09Z</time>
      </trkpt>
      <trkpt lat="46.61675" lon="5.9046">
        <ele>985</ele>
        <time>2015-06-22T08:57:25Z</time>
      </trkpt>
      <trkpt lat="46.61684" lon="5.90457">
        <ele>984</ele>
        <time>2015-06-22T08:57:32Z</time>
      </trkpt>
      <trkpt lat="46.61705" lon="5.90431">
        <ele>979</ele>
        <time>2015-06-22T08:58:06Z</time>
      </trkpt>
      <trkpt lat="46.61715" lon="5.90425">
        <ele>978</ele>
        <time>2015-06-22T08:58:16Z</time>
      </trkpt>
      <trkpt lat="46.61727" lon="5.90404">
        <ele>973</ele>
        <time>2015-06-22T08:58:44Z</time>
      </trkpt>
      <trkpt lat="46.61746" lon="5.90396">
        <ele>971</ele>
        <time>2015-06-22T08:59:04Z</time>
      </trkpt>
      <trkpt lat="46.61762" lon="5.90409">
        <ele>971</ele>
        <time>2015-06-22T08:59:23Z</time>
      </trkpt>
      <trkpt lat="46.6177" lon="5.90417">
        <ele>971</ele>
        <time>2015-06-22T08:59:32Z</time>
      </trkpt>
      <trkpt lat="46.61804" lon="5.90436">
        <ele>974</ele>
        <time>2015-06-22T09:00:08Z</time>
      </trkpt>
      <trkpt lat="46.61836" lon="5.90468">
        <ele>975</ele>
        <time>2015-06-22T09:00:43Z</time>
      </trkpt>
      <trkpt lat="46.61844" lon="5.9048">
        <ele>976</ele>
        <time>2015-06-22T09:01:01Z</time>
      </trkpt>
      <trkpt lat="46.61846" lon="5.90486">
        <ele>976</ele>
        <time>2015-06-22T09:01:08Z</time>
      </trkpt>
      <trkpt lat="46.61849" lon="5.90491">
        <ele>976</ele>
        <time>2015-06-22T09:01:19Z</time>
      </trkpt>
      <trkpt lat="46.61854" lon="5.90496">
        <ele>976</ele>
        <time>2015-06-22T09:01:27Z</time>
      </trkpt>
      <trkpt lat="46.61858" lon="5.90499">
        <ele>976</ele>
        <time>2015-06-22T09:01:32Z</time>
      </trkpt>
      <trkpt lat="46.6186" lon="5.90506">
        <ele>976</ele>
        <time>2015-06-22T09:01:37Z</time>
      </trkpt>
      <trkpt lat="46.61859" lon="5.9052">
        <ele>975</ele>
        <time>2015-06-22T09:01:47Z</time>
      </trkpt>
      <trkpt lat="46.61866" lon="5.90529">
        <ele>975</ele>
        <time>2015-06-22T09:02:03Z</time>
      </trkpt>
      <trkpt lat="46.61875" lon="5.90534">
        <ele>974</ele>
        <time>2015-06-22T09:02:11Z</time>
      </trkpt>
      <trkpt lat="46.61882" lon="5.90544">
        <ele>972</ele>
        <time>2015-06-22T09:02:23Z</time>
      </trkpt>
      <trkpt lat="46.61886" lon="5.90556">
        <ele>972</ele>
        <time>2015-06-22T09:02:30Z</time>
      </trkpt>
      <trkpt lat="46.61911" lon="5.9058">
        <ele>966</ele>
        <time>2015-06-22T09:02:57Z</time>
      </trkpt>
      <trkpt lat="46.61918" lon="5.9059">
        <ele>966</ele>
        <time>2015-06-22T09:03:06Z</time>
      </trkpt>
      <trkpt lat="46.61948" lon="5.90624">
        <ele>968</ele>
        <time>2015-06-22T09:03:41Z</time>
      </trkpt>
      <trkpt lat="46.61954" lon="5.90635">
        <ele>968</ele>
        <time>2015-06-22T09:03:50Z</time>
      </trkpt>
      <trkpt lat="46.61986" lon="5.90664">
        <ele>965</ele>
        <time>2015-06-22T09:04:26Z</time>
      </trkpt>
      <trkpt lat="46.61995" lon="5.9067">
        <ele>964</ele>
        <time>2015-06-22T09:04:34Z</time>
      </trkpt>
      <trkpt lat="46.62003" lon="5.90679">
        <ele>964</ele>
        <time>2015-06-22T09:04:42Z</time>
      </trkpt>
      <trkpt lat="46.6202" lon="5.90687">
        <ele>963</ele>
        <time>2015-06-22T09:05:04Z</time>
      </trkpt>
      <trkpt lat="46.62029" lon="5.90688">
        <ele>962</ele>
        <time>2015-06-22T09:05:21Z</time>
      </trkpt>
      <trkpt lat="46.6204" lon="5.90693">
        <ele>961</ele>
        <time>2015-06-22T09:05:43Z</time>
      </trkpt>
      <trkpt lat="46.62043" lon="5.90706">
        <ele>959</ele>
        <time>2015-06-22T09:05:59Z</time>
      </trkpt>
      <trkpt lat="46.62044" lon="5.90719">
        <ele>959</ele>
        <time>2015-06-22T09:06:08Z</time>
      </trkpt>
      <trkpt lat="46.62047" lon="5.90733">
        <ele>960</ele>
        <time>2015-06-22T09:06:16Z</time>
      </trkpt>
      <trkpt lat="46.62053" lon="5.90743">
        <ele>960</ele>
        <time>2015-06-22T09:06:24Z</time>
      </trkpt>
      <trkpt lat="46.62061" lon="5.90768">
        <ele>959</ele>
        <time>2015-06-22T09:06:40Z</time>
      </trkpt>
      <trkpt lat="46.6206" lon="5.90782">
        <ele>959</ele>
        <time>2015-06-22T09:06:51Z</time>
      </trkpt>
      <trkpt lat="46.62058" lon="5.90787">
        <ele>960</ele>
        <time>2015-06-22T09:07:00Z</time>
      </trkpt>
      <trkpt lat="46.62051" lon="5.90797">
        <ele>959</ele>
        <time>2015-06-22T09:07:15Z</time>
      </trkpt>
      <trkpt lat="46.62049" lon="5.90804">
        <ele>959</ele>
        <time>2015-06-22T09:07:20Z</time>
      </trkpt>
      <trkpt lat="46.62049" lon="5.90811">
        <ele>959</ele>
        <time>2015-06-22T09:07:26Z</time>
      </trkpt>
      <trkpt lat="46.62047" lon="5.90818">
        <ele>959</ele>
        <time>2015-06-22T09:07:38Z</time>
      </trkpt>
      <trkpt lat="46.62044" lon="5.90849">
        <ele>959</ele>
        <time>2015-06-22T09:07:58Z</time>
      </trkpt>
      <trkpt lat="46.62024" lon="5.90878">
        <ele>954</ele>
        <time>2015-06-22T09:08:30Z</time>
      </trkpt>
      <trkpt lat="46.62015" lon="5.90882">
        <ele>952</ele>
        <time>2015-06-22T09:08:43Z</time>
      </trkpt>
      <trkpt lat="46.62008" lon="5.90893">
        <ele>951</ele>
        <time>2015-06-22T09:08:51Z</time>
      </trkpt>
      <trkpt lat="46.61999" lon="5.90898">
        <ele>950</ele>
        <time>2015-06-22T09:09:00Z</time>
      </trkpt>
      <trkpt lat="46.61974" lon="5.90938">
        <ele>944</ele>
        <time>2015-06-22T09:09:42Z</time>
      </trkpt>
      <trkpt lat="46.61973" lon="5.90951">
        <ele>943</ele>
        <time>2015-06-22T09:09:51Z</time>
      </trkpt>
      <trkpt lat="46.61977" lon="5.90964">
        <ele>940</ele>
        <time>2015-06-22T09:09:59Z</time>
      </trkpt>
      <trkpt lat="46.6201" lon="5.90989">
        <ele>933</ele>
        <time>2015-06-22T09:10:35Z</time>
      </trkpt>
      <trkpt lat="46.6202" lon="5.90989">
        <ele>932</ele>
        <time>2015-06-22T09:10:45Z</time>
      </trkpt>
      <trkpt lat="46.62048" lon="5.90976">
        <ele>932</ele>
        <time>2015-06-22T09:11:10Z</time>
      </trkpt>
      <trkpt lat="46.62058" lon="5.90969">
        <ele>931</ele>
        <time>2015-06-22T09:11:27Z</time>
      </trkpt>
      <trkpt lat="46.62093" lon="5.90945">
        <ele>930</ele>
        <time>2015-06-22T09:12:01Z</time>
      </trkpt>
      <trkpt lat="46.62101" lon="5.90937">
        <ele>930</ele>
        <time>2015-06-22T09:12:12Z</time>
      </trkpt>
      <trkpt lat="46.62108" lon="5.90927">
        <ele>931</ele>
        <time>2015-06-22T09:12:20Z</time>
      </trkpt>
      <trkpt lat="46.62116" lon="5.90921">
        <ele>930</ele>
        <time>2015-06-22T09:12:28Z</time>
      </trkpt>
      <trkpt lat="46.62125" lon="5.90914">
        <ele>928</ele>
        <time>2015-06-22T09:12:37Z</time>
      </trkpt>
      <trkpt lat="46.62132" lon="5.90906">
        <ele>928</ele>
        <time>2015-06-22T09:12:46Z</time>
      </trkpt>
      <trkpt lat="46.62148" lon="5.90894">
        <ele>927</ele>
        <time>2015-06-22T09:13:05Z</time>
      </trkpt>
      <trkpt lat="46.62157" lon="5.90888">
        <ele>924</ele>
        <time>2015-06-22T09:13:19Z</time>
      </trkpt>
      <trkpt lat="46.62165" lon="5.90895">
        <ele>924</ele>
        <time>2015-06-22T09:13:32Z</time>
      </trkpt>
      <trkpt lat="46.62179" lon="5.90896">
        <ele>921</ele>
        <time>2015-06-22T09:13:51Z</time>
      </trkpt>
      <trkpt lat="46.62215" lon="5.90894">
        <ele>919</ele>
        <time>2015-06-22T09:14:22Z</time>
      </trkpt>
      <trkpt lat="46.62219" lon="5.90906">
        <ele>918</ele>
        <time>2015-06-22T09:14:32Z</time>
      </trkpt>
      <trkpt lat="46.6222" lon="5.9092">
        <ele>918</ele>
        <time>2015-06-22T09:14:43Z</time>
      </trkpt>
      <trkpt lat="46.62228" lon="5.90923">
        <ele>918</ele>
        <time>2015-06-22T09:14:50Z</time>
      </trkpt>
      <trkpt lat="46.62231" lon="5.90937">
        <ele>918</ele>
        <time>2015-06-22T09:14:56Z</time>
      </trkpt>
      <trkpt lat="46.62233" lon="5.90954">
        <ele>919</ele>
        <time>2015-06-22T09:15:12Z</time>
      </trkpt>
      <trkpt lat="46.62237" lon="5.90958">
        <ele>918</ele>
        <time>2015-06-22T09:15:23Z</time>
      </trkpt>
      <trkpt lat="46.62247" lon="5.9096">
        <ele>918</ele>
        <time>2015-06-22T09:15:38Z</time>
      </trkpt>
      <trkpt lat="46.62266" lon="5.90958">
        <ele>918</ele>
        <time>2015-06-22T09:15:58Z</time>
      </trkpt>
      <trkpt lat="46.62272" lon="5.90967">
        <ele>919</ele>
        <time>2015-06-22T09:16:07Z</time>
      </trkpt>
      <trkpt lat="46.6229" lon="5.90976">
        <ele>919</ele>
        <time>2015-06-22T09:16:30Z</time>
      </trkpt>
      <trkpt lat="46.62314" lon="5.90999">
        <ele>918</ele>
        <time>2015-06-22T09:16:59Z</time>
      </trkpt>
      <trkpt lat="46.62334" lon="5.90995">
        <ele>919</ele>
        <time>2015-06-22T09:17:19Z</time>
      </trkpt>
      <trkpt lat="46.62359" lon="5.90994">
        <ele>927</ele>
        <time>2015-06-22T09:18:11Z</time>
      </trkpt>
      <trkpt lat="46.62361" lon="5.90986">
        <ele>928</ele>
        <time>2015-06-22T09:18:23Z</time>
      </trkpt>
      <trkpt lat="46.62364" lon="5.90982">
        <ele>929</ele>
        <time>2015-06-22T09:18:41Z</time>
      </trkpt>
      <trkpt lat="46.62362" lon="5.90979">
        <ele>930</ele>
        <time>2015-06-22T09:19:16Z</time>
      </trkpt>
      <trkpt lat="46.6236" lon="5.90978">
        <ele>931</ele>
        <time>2015-06-22T09:19:52Z</time>
      </trkpt>
      <trkpt lat="46.62359" lon="5.90981">
        <ele>936</ele>
        <time>2015-06-22T09:22:36Z</time>
      </trkpt>
      <trkpt lat="46.62364" lon="5.90984">
        <ele>934</ele>
        <time>2015-06-22T09:22:55Z</time>
      </trkpt>
      <trkpt lat="46.62359" lon="5.90988">
        <ele>934</ele>
        <time>2015-06-22T09:23:04Z</time>
      </trkpt>
      <trkpt lat="46.62358" lon="5.90981">
        <ele>933</ele>
        <time>2015-06-22T09:23:47Z</time>
      </trkpt>
      <trkpt lat="46.6236" lon="5.90981">
        <ele>934</ele>
        <time>2015-06-22T09:24:09Z</time>
      </trkpt>
      <trkpt lat="46.62362" lon="5.90977">
        <ele>934</ele>
        <time>2015-06-22T09:24:28Z</time>
      </trkpt>
      <trkpt lat="46.62362" lon="5.90972">
        <ele>935</ele>
        <time>2015-06-22T09:26:30Z</time>
      </trkpt>
      <trkpt lat="46.6236" lon="5.90969">
        <ele>939</ele>
        <time>2015-06-22T09:26:59Z</time>
      </trkpt>
      <trkpt lat="46.62363" lon="5.90978">
        <ele>939</ele>
        <time>2015-06-22T09:27:04Z</time>
      </trkpt>
      <trkpt lat="46.62379" lon="5.91021">
        <ele>931</ele>
        <time>2015-06-22T09:27:38Z</time>
      </trkpt>
      <trkpt lat="46.62381" lon="5.91028">
        <ele>929</ele>
        <time>2015-06-22T09:27:44Z</time>
      </trkpt>
      <trkpt lat="46.62386" lon="5.91032">
        <ele>928</ele>
        <time>2015-06-22T09:27:49Z</time>
      </trkpt>
      <trkpt lat="46.62388" lon="5.91045">
        <ele>927</ele>
        <time>2015-06-22T09:28:01Z</time>
      </trkpt>
      <trkpt lat="46.62398" lon="5.91051">
        <ele>927</ele>
        <time>2015-06-22T09:28:10Z</time>
      </trkpt>
      <trkpt lat="46.62404" lon="5.91062">
        <ele>927</ele>
        <time>2015-06-22T09:28:17Z</time>
      </trkpt>
      <trkpt lat="46.62412" lon="5.91068">
        <ele>926</ele>
        <time>2015-06-22T09:28:29Z</time>
      </trkpt>
      <trkpt lat="46.62422" lon="5.91076">
        <ele>926</ele>
        <time>2015-06-22T09:28:46Z</time>
      </trkpt>
      <trkpt lat="46.6243" lon="5.91082">
        <ele>928</ele>
        <time>2015-06-22T09:28:58Z</time>
      </trkpt>
      <trkpt lat="46.62437" lon="5.9109">
        <ele>929</ele>
        <time>2015-06-22T09:29:09Z</time>
      </trkpt>
      <trkpt lat="46.62447" lon="5.9109">
        <ele>929</ele>
        <time>2015-06-22T09:29:26Z</time>
      </trkpt>
      <trkpt lat="46.62452" lon="5.91087">
        <ele>929</ele>
        <time>2015-06-22T09:29:46Z</time>
      </trkpt>
      <trkpt lat="46.62461" lon="5.9109">
        <ele>929</ele>
        <time>2015-06-22T09:29:56Z</time>
      </trkpt>
      <trkpt lat="46.62465" lon="5.91102">
        <ele>930</ele>
        <time>2015-06-22T09:30:08Z</time>
      </trkpt>
      <trkpt lat="46.62474" lon="5.91113">
        <ele>930</ele>
        <time>2015-06-22T09:30:29Z</time>
      </trkpt>
      <trkpt lat="46.62482" lon="5.91139">
        <ele>928</ele>
        <time>2015-06-22T09:30:47Z</time>
      </trkpt>
      <trkpt lat="46.62498" lon="5.91151">
        <ele>927</ele>
        <time>2015-06-22T09:31:13Z</time>
      </trkpt>
      <trkpt lat="46.62504" lon="5.91161">
        <ele>927</ele>
        <time>2015-06-22T09:31:25Z</time>
      </trkpt>
      <trkpt lat="46.62517" lon="5.91186">
        <ele>922</ele>
        <time>2015-06-22T09:31:56Z</time>
      </trkpt>
      <trkpt lat="46.62526" lon="5.91192">
        <ele>921</ele>
        <time>2015-06-22T09:32:06Z</time>
      </trkpt>
      <trkpt lat="46.62527" lon="5.91205">
        <ele>921</ele>
        <time>2015-06-22T09:32:16Z</time>
      </trkpt>
      <trkpt lat="46.62533" lon="5.91216">
        <ele>922</ele>
        <time>2015-06-22T09:32:35Z</time>
      </trkpt>
      <trkpt lat="46.62539" lon="5.91229">
        <ele>921</ele>
        <time>2015-06-22T09:32:58Z</time>
      </trkpt>
      <trkpt lat="46.62541" lon="5.91243">
        <ele>920</ele>
        <time>2015-06-22T09:33:07Z</time>
      </trkpt>
      <trkpt lat="46.62557" lon="5.91264">
        <ele>919</ele>
        <time>2015-06-22T09:33:36Z</time>
      </trkpt>
      <trkpt lat="46.62563" lon="5.91275">
        <ele>917</ele>
        <time>2015-06-22T09:33:48Z</time>
      </trkpt>
      <trkpt lat="46.62581" lon="5.91282">
        <ele>914</ele>
        <time>2015-06-22T09:34:11Z</time>
      </trkpt>
      <trkpt lat="46.62587" lon="5.91293">
        <ele>914</ele>
        <time>2015-06-22T09:34:23Z</time>
      </trkpt>
      <trkpt lat="46.62603" lon="5.91304">
        <ele>914</ele>
        <time>2015-06-22T09:34:45Z</time>
      </trkpt>
      <trkpt lat="46.62613" lon="5.91317">
        <ele>914</ele>
        <time>2015-06-22T09:35:08Z</time>
      </trkpt>
      <trkpt lat="46.62622" lon="5.91317">
        <ele>915</ele>
        <time>2015-06-22T09:35:19Z</time>
      </trkpt>
      <trkpt lat="46.62629" lon="5.91318">
        <ele>917</ele>
        <time>2015-06-22T09:35:29Z</time>
      </trkpt>
      <trkpt lat="46.62629" lon="5.91313">
        <ele>917</ele>
        <time>2015-06-22T09:35:51Z</time>
      </trkpt>
      <trkpt lat="46.62628" lon="5.91315">
        <ele>919</ele>
        <time>2015-06-22T09:38:37Z</time>
      </trkpt>
      <trkpt lat="46.62624" lon="5.91312">
        <ele>919</ele>
        <time>2015-06-22T09:39:07Z</time>
      </trkpt>
      <trkpt lat="46.62622" lon="5.91305">
        <ele>919</ele>
        <time>2015-06-22T09:39:25Z</time>
      </trkpt>
      <trkpt lat="46.6262" lon="5.91309">
        <ele>917</ele>
        <time>2015-06-22T09:40:22Z</time>
      </trkpt>
      <trkpt lat="46.62613" lon="5.91323">
        <ele>917</ele>
        <time>2015-06-22T09:41:06Z</time>
      </trkpt>
      <trkpt lat="46.62611" lon="5.91336">
        <ele>915</ele>
        <time>2015-06-22T09:41:22Z</time>
      </trkpt>
      <trkpt lat="46.62607" lon="5.91343">
        <ele>914</ele>
        <time>2015-06-22T09:41:36Z</time>
      </trkpt>
      <trkpt lat="46.62612" lon="5.91355">
        <ele>915</ele>
        <time>2015-06-22T09:41:50Z</time>
      </trkpt>
      <trkpt lat="46.62611" lon="5.91368">
        <ele>917</ele>
        <time>2015-06-22T09:42:01Z</time>
      </trkpt>
      <trkpt lat="46.62614" lon="5.91381">
        <ele>920</ele>
        <time>2015-06-22T09:42:12Z</time>
      </trkpt>
      <trkpt lat="46.62613" lon="5.91396">
        <ele>921</ele>
        <time>2015-06-22T09:42:21Z</time>
      </trkpt>
      <trkpt lat="46.62612" lon="5.9141">
        <ele>921</ele>
        <time>2015-06-22T09:42:29Z</time>
      </trkpt>
      <trkpt lat="46.62598" lon="5.91428">
        <ele>922</ele>
        <time>2015-06-22T09:42:49Z</time>
      </trkpt>
      <trkpt lat="46.62602" lon="5.91433">
        <ele>926</ele>
        <time>2015-06-22T09:43:36Z</time>
      </trkpt>
      <trkpt lat="46.62613" lon="5.91436">
        <ele>927</ele>
        <time>2015-06-22T09:43:55Z</time>
      </trkpt>
      <trkpt lat="46.6263" lon="5.91449">
        <ele>931</ele>
        <time>2015-06-22T09:44:13Z</time>
      </trkpt>
      <trkpt lat="46.62636" lon="5.91461">
        <ele>932</ele>
        <time>2015-06-22T09:44:26Z</time>
      </trkpt>
      <trkpt lat="46.62646" lon="5.91464">
        <ele>933</ele>
        <time>2015-06-22T09:44:38Z</time>
      </trkpt>
      <trkpt lat="46.62663" lon="5.91473">
        <ele>933</ele>
        <time>2015-06-22T09:45:01Z</time>
      </trkpt>
      <trkpt lat="46.62684" lon="5.91497">
        <ele>937</ele>
        <time>2015-06-22T09:45:41Z</time>
      </trkpt>
      <trkpt lat="46.62693" lon="5.91505">
        <ele>938</ele>
        <time>2015-06-22T09:45:51Z</time>
      </trkpt>
      <trkpt lat="46.62698" lon="5.91517">
        <ele>939</ele>
        <time>2015-06-22T09:46:02Z</time>
      </trkpt>
      <trkpt lat="46.62707" lon="5.91516">
        <ele>940</ele>
        <time>2015-06-22T09:46:19Z</time>
      </trkpt>
      <trkpt lat="46.62716" lon="5.91512">
        <ele>939</ele>
        <time>2015-06-22T09:46:38Z</time>
      </trkpt>
      <trkpt lat="46.62725" lon="5.91514">
        <ele>939</ele>
        <time>2015-06-22T09:46:52Z</time>
      </trkpt>
      <trkpt lat="46.62733" lon="5.91518">
        <ele>937</ele>
        <time>2015-06-22T09:47:01Z</time>
      </trkpt>
      <trkpt lat="46.62762" lon="5.91501">
        <ele>932</ele>
        <time>2015-06-22T09:47:53Z</time>
      </trkpt>
      <trkpt lat="46.62771" lon="5.91504">
        <ele>928</ele>
        <time>2015-06-22T09:48:37Z</time>
      </trkpt>
      <trkpt lat="46.62776" lon="5.91517">
        <ele>925</ele>
        <time>2015-06-22T09:48:58Z</time>
      </trkpt>
      <trkpt lat="46.62777" lon="5.91531">
        <ele>920</ele>
        <time>2015-06-22T09:49:13Z</time>
      </trkpt>
      <trkpt lat="46.62785" lon="5.91539">
        <ele>917</ele>
        <time>2015-06-22T09:49:22Z</time>
      </trkpt>
      <trkpt lat="46.62799" lon="5.91557">
        <ele>914</ele>
        <time>2015-06-22T09:49:36Z</time>
      </trkpt>
      <trkpt lat="46.62805" lon="5.91567">
        <ele>915</ele>
        <time>2015-06-22T09:49:43Z</time>
      </trkpt>
      <trkpt lat="46.62811" lon="5.91594">
        <ele>916</ele>
        <time>2015-06-22T09:49:59Z</time>
      </trkpt>
      <trkpt lat="46.62818" lon="5.91601">
        <ele>917</ele>
        <time>2015-06-22T09:50:09Z</time>
      </trkpt>
      <trkpt lat="46.62827" lon="5.91607">
        <ele>916</ele>
        <time>2015-06-22T09:50:22Z</time>
      </trkpt>
      <trkpt lat="46.62833" lon="5.91618">
        <ele>917</ele>
        <time>2015-06-22T09:50:32Z</time>
      </trkpt>
      <trkpt lat="46.62847" lon="5.91637">
        <ele>918</ele>
        <time>2015-06-22T09:50:51Z</time>
      </trkpt>
      <trkpt lat="46.62866" lon="5.91667">
        <ele>920</ele>
        <time>2015-06-22T09:51:22Z</time>
      </trkpt>
      <trkpt lat="46.62874" lon="5.91674">
        <ele>920</ele>
        <time>2015-06-22T09:51:31Z</time>
      </trkpt>
      <trkpt lat="46.62881" lon="5.91684">
        <ele>919</ele>
        <time>2015-06-22T09:51:41Z</time>
      </trkpt>
      <trkpt lat="46.6289" lon="5.91685">
        <ele>919</ele>
        <time>2015-06-22T09:51:51Z</time>
      </trkpt>
      <trkpt lat="46.62915" lon="5.91703">
        <ele>917</ele>
        <time>2015-06-22T09:52:22Z</time>
      </trkpt>
      <trkpt lat="46.62937" lon="5.91733">
        <ele>918</ele>
        <time>2015-06-22T09:52:51Z</time>
      </trkpt>
      <trkpt lat="46.62944" lon="5.91741">
        <ele>918</ele>
        <time>2015-06-22T09:52:58Z</time>
      </trkpt>
      <trkpt lat="46.62952" lon="5.91766">
        <ele>917</ele>
        <time>2015-06-22T09:53:18Z</time>
      </trkpt>
      <trkpt lat="46.62959" lon="5.91776">
        <ele>917</ele>
        <time>2015-06-22T09:53:27Z</time>
      </trkpt>
      <trkpt lat="46.62965" lon="5.9179">
        <ele>917</ele>
        <time>2015-06-22T09:53:47Z</time>
      </trkpt>
      <trkpt lat="46.62972" lon="5.918">
        <ele>917</ele>
        <time>2015-06-22T09:53:58Z</time>
      </trkpt>
      <trkpt lat="46.62981" lon="5.91804">
        <ele>918</ele>
        <time>2015-06-22T09:54:07Z</time>
      </trkpt>
      <trkpt lat="46.62985" lon="5.91817">
        <ele>918</ele>
        <time>2015-06-22T09:54:18Z</time>
      </trkpt>
      <trkpt lat="46.62991" lon="5.91826">
        <ele>919</ele>
        <time>2015-06-22T09:54:26Z</time>
      </trkpt>
      <trkpt lat="46.62998" lon="5.91836">
        <ele>919</ele>
        <time>2015-06-22T09:54:37Z</time>
      </trkpt>
      <trkpt lat="46.63006" lon="5.91844">
        <ele>918</ele>
        <time>2015-06-22T09:54:45Z</time>
      </trkpt>
      <trkpt lat="46.63017" lon="5.91867">
        <ele>918</ele>
        <time>2015-06-22T09:55:14Z</time>
      </trkpt>
      <trkpt lat="46.63021" lon="5.91876">
        <ele>916</ele>
        <time>2015-06-22T09:55:38Z</time>
      </trkpt>
      <trkpt lat="46.63018" lon="5.91886">
        <ele>911</ele>
        <time>2015-06-22T09:55:55Z</time>
      </trkpt>
      <trkpt lat="46.63015" lon="5.91905">
        <ele>908</ele>
        <time>2015-06-22T09:57:15Z</time>
      </trkpt>
      <trkpt lat="46.63018" lon="5.91917">
        <ele>908</ele>
        <time>2015-06-22T09:57:36Z</time>
      </trkpt>
      <trkpt lat="46.63021" lon="5.9193">
        <ele>907</ele>
        <time>2015-06-22T09:57:44Z</time>
      </trkpt>
      <trkpt lat="46.63029" lon="5.91938">
        <ele>906</ele>
        <time>2015-06-22T09:57:56Z</time>
      </trkpt>
      <trkpt lat="46.63039" lon="5.91952">
        <ele>903</ele>
        <time>2015-06-22T09:58:30Z</time>
      </trkpt>
      <trkpt lat="46.63045" lon="5.9195">
        <ele>902</ele>
        <time>2015-06-22T09:59:02Z</time>
      </trkpt>
      <trkpt lat="46.63051" lon="5.91955">
        <ele>902</ele>
        <time>2015-06-22T09:59:19Z</time>
      </trkpt>
      <trkpt lat="46.63056" lon="5.91959">
        <ele>900</ele>
        <time>2015-06-22T09:59:38Z</time>
      </trkpt>
      <trkpt lat="46.63064" lon="5.91967">
        <ele>900</ele>
        <time>2015-06-22T10:00:01Z</time>
      </trkpt>
      <trkpt lat="46.63074" lon="5.91966">
        <ele>897</ele>
        <time>2015-06-22T10:00:20Z</time>
      </trkpt>
      <trkpt lat="46.63077" lon="5.91979">
        <ele>898</ele>
        <time>2015-06-22T10:00:41Z</time>
      </trkpt>
      <trkpt lat="46.63086" lon="5.91984">
        <ele>898</ele>
        <time>2015-06-22T10:00:56Z</time>
      </trkpt>
      <trkpt lat="46.63095" lon="5.91989">
        <ele>898</ele>
        <time>2015-06-22T10:01:17Z</time>
      </trkpt>
      <trkpt lat="46.631" lon="5.92001">
        <ele>895</ele>
        <time>2015-06-22T10:01:42Z</time>
      </trkpt>
      <trkpt lat="46.63103" lon="5.92009">
        <ele>896</ele>
        <time>2015-06-22T10:02:14Z</time>
      </trkpt>
      <trkpt lat="46.63115" lon="5.92031">
        <ele>897</ele>
        <time>2015-06-22T10:02:42Z</time>
      </trkpt>
      <trkpt lat="46.63119" lon="5.92044">
        <ele>896</ele>
        <time>2015-06-22T10:02:58Z</time>
      </trkpt>
      <trkpt lat="46.63121" lon="5.92049">
        <ele>894</ele>
        <time>2015-06-22T10:03:11Z</time>
      </trkpt>
      <trkpt lat="46.63123" lon="5.92063">
        <ele>894</ele>
        <time>2015-06-22T10:03:24Z</time>
      </trkpt>
      <trkpt lat="46.63131" lon="5.92069">
        <ele>892</ele>
        <time>2015-06-22T10:03:36Z</time>
      </trkpt>
      <trkpt lat="46.63149" lon="5.92076">
        <ele>891</ele>
        <time>2015-06-22T10:03:55Z</time>
      </trkpt>
      <trkpt lat="46.63158" lon="5.92084">
        <ele>892</ele>
        <time>2015-06-22T10:04:27Z</time>
      </trkpt>
      <trkpt lat="46.63162" lon="5.92096">
        <ele>893</ele>
        <time>2015-06-22T10:04:38Z</time>
      </trkpt>
      <trkpt lat="46.63168" lon="5.92108">
        <ele>893</ele>
        <time>2015-06-22T10:04:47Z</time>
      </trkpt>
      <trkpt lat="46.63175" lon="5.92118">
        <ele>892</ele>
        <time>2015-06-22T10:05:00Z</time>
      </trkpt>
      <trkpt lat="46.63179" lon="5.9213">
        <ele>891</ele>
        <time>2015-06-22T10:05:15Z</time>
      </trkpt>
      <trkpt lat="46.63187" lon="5.92136">
        <ele>890</ele>
        <time>2015-06-22T10:05:32Z</time>
      </trkpt>
      <trkpt lat="46.63191" lon="5.92147">
        <ele>890</ele>
        <time>2015-06-22T10:05:44Z</time>
      </trkpt>
      <trkpt lat="46.63192" lon="5.92165">
        <ele>887</ele>
        <time>2015-06-22T10:06:12Z</time>
      </trkpt>
      <trkpt lat="46.63195" lon="5.92183">
        <ele>887</ele>
        <time>2015-06-22T10:06:41Z</time>
      </trkpt>
      <trkpt lat="46.63201" lon="5.92194">
        <ele>887</ele>
        <time>2015-06-22T10:06:51Z</time>
      </trkpt>
      <trkpt lat="46.63205" lon="5.92198">
        <ele>886</ele>
        <time>2015-06-22T10:07:05Z</time>
      </trkpt>
      <trkpt lat="46.63217" lon="5.92217">
        <ele>889</ele>
        <time>2015-06-22T10:07:34Z</time>
      </trkpt>
      <trkpt lat="46.63227" lon="5.92218">
        <ele>890</ele>
        <time>2015-06-22T10:07:43Z</time>
      </trkpt>
      <trkpt lat="46.63236" lon="5.92223">
        <ele>890</ele>
        <time>2015-06-22T10:07:52Z</time>
      </trkpt>
      <trkpt lat="46.63242" lon="5.92235">
        <ele>891</ele>
        <time>2015-06-22T10:08:02Z</time>
      </trkpt>
      <trkpt lat="46.6325" lon="5.92242">
        <ele>890</ele>
        <time>2015-06-22T10:08:13Z</time>
      </trkpt>
      <trkpt lat="46.63256" lon="5.92247">
        <ele>889</ele>
        <time>2015-06-22T10:08:29Z</time>
      </trkpt>
      <trkpt lat="46.63255" lon="5.92255">
        <ele>888</ele>
        <time>2015-06-22T10:09:09Z</time>
      </trkpt>
      <trkpt lat="46.63263" lon="5.92262">
        <ele>888</ele>
        <time>2015-06-22T10:09:25Z</time>
      </trkpt>
      <trkpt lat="46.63267" lon="5.92275">
        <ele>885</ele>
        <time>2015-06-22T10:09:38Z</time>
      </trkpt>
      <trkpt lat="46.63266" lon="5.92285">
        <ele>882</ele>
        <time>2015-06-22T10:11:44Z</time>
      </trkpt>
      <trkpt lat="46.63275" lon="5.92284">
        <ele>881</ele>
        <time>2015-06-22T10:11:55Z</time>
      </trkpt>
      <trkpt lat="46.63285" lon="5.92285">
        <ele>880</ele>
        <time>2015-06-22T10:12:25Z</time>
      </trkpt>
      <trkpt lat="46.63292" lon="5.92294">
        <ele>876</ele>
        <time>2015-06-22T10:12:36Z</time>
      </trkpt>
      <trkpt lat="46.63302" lon="5.92324">
        <ele>871</ele>
        <time>2015-06-22T10:13:16Z</time>
      </trkpt>
      <trkpt lat="46.6331" lon="5.92331">
        <ele>872</ele>
        <time>2015-06-22T10:13:27Z</time>
      </trkpt>
      <trkpt lat="46.6332" lon="5.92335">
        <ele>880</ele>
        <time>2015-06-22T10:13:53Z</time>
      </trkpt>
      <trkpt lat="46.63314" lon="5.92346">
        <ele>882</ele>
        <time>2015-06-22T10:14:38Z</time>
      </trkpt>
      <trkpt lat="46.63311" lon="5.92333">
        <ele>881</ele>
        <time>2015-06-22T10:14:50Z</time>
      </trkpt>
      <trkpt lat="46.63308" lon="5.9232">
        <ele>880</ele>
        <time>2015-06-22T10:15:00Z</time>
      </trkpt>
      <trkpt lat="46.63317" lon="5.9232">
        <ele>877</ele>
        <time>2015-06-22T10:15:20Z</time>
      </trkpt>
      <trkpt lat="46.6332" lon="5.92306">
        <ele>868</ele>
        <time>2015-06-22T10:15:57Z</time>
      </trkpt>
      <trkpt lat="46.63325" lon="5.92308">
        <ele>859</ele>
        <time>2015-06-22T10:16:23Z</time>
      </trkpt>
      <trkpt lat="46.63331" lon="5.92317">
        <ele>857</ele>
        <time>2015-06-22T10:16:41Z</time>
      </trkpt>
      <trkpt lat="46.63341" lon="5.92315">
        <ele>855</ele>
        <time>2015-06-22T10:16:53Z</time>
      </trkpt>
      <trkpt lat="46.63346" lon="5.92319">
        <ele>854</ele>
        <time>2015-06-22T10:17:06Z</time>
      </trkpt>
      <trkpt lat="46.63359" lon="5.92333">
        <ele>846</ele>
        <time>2015-06-22T10:17:55Z</time>
      </trkpt>
      <trkpt lat="46.63365" lon="5.92336">
        <ele>840</ele>
        <time>2015-06-22T10:18:24Z</time>
      </trkpt>
      <trkpt lat="46.63371" lon="5.92341">
        <ele>832</ele>
        <time>2015-06-22T10:19:07Z</time>
      </trkpt>
      <trkpt lat="46.63383" lon="5.92345">
        <ele>830</ele>
        <time>2015-06-22T10:19:27Z</time>
      </trkpt>
      <trkpt lat="46.63388" lon="5.92346">
        <ele>825</ele>
        <time>2015-06-22T10:20:18Z</time>
      </trkpt>
      <trkpt lat="46.63396" lon="5.92351">
        <ele>825</ele>
        <time>2015-06-22T10:20:23Z</time>
      </trkpt>
      <trkpt lat="46.63401" lon="5.92357">
        <ele>823</ele>
        <time>2015-06-22T10:20:25Z</time>
      </trkpt>
      <trkpt lat="46.63404" lon="5.92342">
        <ele>820</ele>
        <time>2015-06-22T10:20:34Z</time>
      </trkpt>
      <trkpt lat="46.63413" lon="5.9234">
        <ele>818</ele>
        <time>2015-06-22T10:21:21Z</time>
      </trkpt>
      <trkpt lat="46.63417" lon="5.92346">
        <ele>819</ele>
        <time>2015-06-22T10:21:33Z</time>
      </trkpt>
      <trkpt lat="46.63425" lon="5.92338">
        <ele>820</ele>
        <time>2015-06-22T10:21:43Z</time>
      </trkpt>
      <trkpt lat="46.63426" lon="5.92341">
        <ele>818</ele>
        <time>2015-06-22T10:22:24Z</time>
      </trkpt>
      <trkpt lat="46.63429" lon="5.92323">
        <ele>816</ele>
        <time>2015-06-22T10:22:52Z</time>
      </trkpt>
      <trkpt lat="46.63431" lon="5.92315">
        <ele>807</ele>
        <time>2015-06-22T10:23:45Z</time>
      </trkpt>
      <trkpt lat="46.63434" lon="5.92301">
        <ele>802</ele>
        <time>2015-06-22T10:25:04Z</time>
      </trkpt>
      <trkpt lat="46.63439" lon="5.92295">
        <ele>798</ele>
        <time>2015-06-22T10:25:18Z</time>
      </trkpt>
      <trkpt lat="46.63431" lon="5.92288">
        <ele>796</ele>
        <time>2015-06-22T10:25:31Z</time>
      </trkpt>
      <trkpt lat="46.63422" lon="5.92283">
        <ele>796</ele>
        <time>2015-06-22T10:25:39Z</time>
      </trkpt>
      <trkpt lat="46.63426" lon="5.92273">
        <ele>792</ele>
        <time>2015-06-22T10:26:10Z</time>
      </trkpt>
      <trkpt lat="46.63444" lon="5.9228">
        <ele>793</ele>
        <time>2015-06-22T10:26:37Z</time>
      </trkpt>
      <trkpt lat="46.63462" lon="5.92285">
        <ele>791</ele>
        <time>2015-06-22T10:26:55Z</time>
      </trkpt>
      <trkpt lat="46.63467" lon="5.92273">
        <ele>789</ele>
        <time>2015-06-22T10:27:10Z</time>
      </trkpt>
      <trkpt lat="46.63473" lon="5.92262">
        <ele>787</ele>
        <time>2015-06-22T10:27:24Z</time>
      </trkpt>
      <trkpt lat="46.6348" lon="5.92255">
        <ele>786</ele>
        <time>2015-06-22T10:27:35Z</time>
      </trkpt>
      <trkpt lat="46.63485" lon="5.92254">
        <ele>786</ele>
        <time>2015-06-22T10:27:46Z</time>
      </trkpt>
      <trkpt lat="46.63491" lon="5.92245">
        <ele>782</ele>
        <time>2015-06-22T10:28:45Z</time>
      </trkpt>
      <trkpt lat="46.63482" lon="5.92192">
        <ele>774</ele>
        <time>2015-06-22T10:29:20Z</time>
      </trkpt>
      <trkpt lat="46.63481" lon="5.92177">
        <ele>774</ele>
        <time>2015-06-22T10:29:27Z</time>
      </trkpt>
      <trkpt lat="46.63474" lon="5.92168">
        <ele>773</ele>
        <time>2015-06-22T10:29:35Z</time>
      </trkpt>
      <trkpt lat="46.63472" lon="5.92154">
        <ele>772</ele>
        <time>2015-06-22T10:29:43Z</time>
      </trkpt>
      <trkpt lat="46.63468" lon="5.92141">
        <ele>771</ele>
        <time>2015-06-22T10:29:51Z</time>
      </trkpt>
      <trkpt lat="46.63467" lon="5.92128">
        <ele>770</ele>
        <time>2015-06-22T10:29:58Z</time>
      </trkpt>
      <trkpt lat="46.63459" lon="5.9212">
        <ele>771</ele>
        <time>2015-06-22T10:30:06Z</time>
      </trkpt>
      <trkpt lat="46.63438" lon="5.92092">
        <ele>772</ele>
        <time>2015-06-22T10:30:30Z</time>
      </trkpt>
      <trkpt lat="46.63405" lon="5.92072">
        <ele>772</ele>
        <time>2015-06-22T10:30:53Z</time>
      </trkpt>
      <trkpt lat="46.63404" lon="5.92059">
        <ele>772</ele>
        <time>2015-06-22T10:31:02Z</time>
      </trkpt>
      <trkpt lat="46.63394" lon="5.92035">
        <ele>774</ele>
        <time>2015-06-22T10:31:19Z</time>
      </trkpt>
      <trkpt lat="46.63389" lon="5.91998">
        <ele>771</ele>
        <time>2015-06-22T10:31:42Z</time>
      </trkpt>
      <trkpt lat="46.63394" lon="5.91957">
        <ele>774</ele>
        <time>2015-06-22T10:32:07Z</time>
      </trkpt>
      <trkpt lat="46.63398" lon="5.91944">
        <ele>775</ele>
        <time>2015-06-22T10:32:21Z</time>
      </trkpt>
      <trkpt lat="46.63405" lon="5.91943">
        <ele>776</ele>
        <time>2015-06-22T10:32:38Z</time>
      </trkpt>
      <trkpt lat="46.6343" lon="5.91941">
        <ele>780</ele>
        <time>2015-06-22T10:33:17Z</time>
      </trkpt>
      <trkpt lat="46.63458" lon="5.91933">
        <ele>780</ele>
        <time>2015-06-22T10:33:43Z</time>
      </trkpt>
      <trkpt lat="46.63464" lon="5.91923">
        <ele>780</ele>
        <time>2015-06-22T10:33:51Z</time>
      </trkpt>
      <trkpt lat="46.63469" lon="5.9191">
        <ele>779</ele>
        <time>2015-06-22T10:34:01Z</time>
      </trkpt>
      <trkpt lat="46.63469" lon="5.91896">
        <ele>779</ele>
        <time>2015-06-22T10:34:10Z</time>
      </trkpt>
      <trkpt lat="46.63468" lon="5.91883">
        <ele>779</ele>
        <time>2015-06-22T10:34:19Z</time>
      </trkpt>
      <trkpt lat="46.63475" lon="5.91871">
        <ele>779</ele>
        <time>2015-06-22T10:34:26Z</time>
      </trkpt>
      <trkpt lat="46.63481" lon="5.91861">
        <ele>780</ele>
        <time>2015-06-22T10:34:37Z</time>
      </trkpt>
      <trkpt lat="46.63485" lon="5.91848">
        <ele>779</ele>
        <time>2015-06-22T10:34:44Z</time>
      </trkpt>
      <trkpt lat="46.6349" lon="5.91835">
        <ele>780</ele>
        <time>2015-06-22T10:34:51Z</time>
      </trkpt>
      <trkpt lat="46.63505" lon="5.91819">
        <ele>782</ele>
        <time>2015-06-22T10:35:09Z</time>
      </trkpt>
      <trkpt lat="46.63541" lon="5.91784">
        <ele>786</ele>
        <time>2015-06-22T10:35:55Z</time>
      </trkpt>
      <trkpt lat="46.6355" lon="5.9178">
        <ele>786</ele>
        <time>2015-06-22T10:36:05Z</time>
      </trkpt>
      <trkpt lat="46.63557" lon="5.91772">
        <ele>787</ele>
        <time>2015-06-22T10:36:14Z</time>
      </trkpt>
      <trkpt lat="46.63566" lon="5.91776">
        <ele>787</ele>
        <time>2015-06-22T10:36:22Z</time>
      </trkpt>
      <trkpt lat="46.63575" lon="5.91771">
        <ele>787</ele>
        <time>2015-06-22T10:36:30Z</time>
      </trkpt>
      <trkpt lat="46.63598" lon="5.91744">
        <ele>787</ele>
        <time>2015-06-22T10:36:52Z</time>
      </trkpt>
      <trkpt lat="46.63609" lon="5.91721">
        <ele>786</ele>
        <time>2015-06-22T10:37:07Z</time>
      </trkpt>
      <trkpt lat="46.63615" lon="5.91667">
        <ele>784</ele>
        <time>2015-06-22T10:37:34Z</time>
      </trkpt>
      <trkpt lat="46.63619" lon="5.91654">
        <ele>784</ele>
        <time>2015-06-22T10:37:42Z</time>
      </trkpt>
      <trkpt lat="46.63621" lon="5.91626">
        <ele>786</ele>
        <time>2015-06-22T10:37:57Z</time>
      </trkpt>
      <trkpt lat="46.63639" lon="5.91579">
        <ele>786</ele>
        <time>2015-06-22T10:38:29Z</time>
      </trkpt>
      <trkpt lat="46.63648" lon="5.91554">
        <ele>788</ele>
        <time>2015-06-22T10:38:43Z</time>
      </trkpt>
      <trkpt lat="46.63647" lon="5.9154">
        <ele>789</ele>
        <time>2015-06-22T10:38:51Z</time>
      </trkpt>
      <trkpt lat="46.63655" lon="5.91531">
        <ele>789</ele>
        <time>2015-06-22T10:38:59Z</time>
      </trkpt>
      <trkpt lat="46.63665" lon="5.91508">
        <ele>790</ele>
        <time>2015-06-22T10:39:15Z</time>
      </trkpt>
      <trkpt lat="46.63663" lon="5.9148">
        <ele>789</ele>
        <time>2015-06-22T10:39:30Z</time>
      </trkpt>
      <trkpt lat="46.63654" lon="5.91455">
        <ele>789</ele>
        <time>2015-06-22T10:39:47Z</time>
      </trkpt>
      <trkpt lat="46.63651" lon="5.91442">
        <ele>790</ele>
        <time>2015-06-22T10:39:58Z</time>
      </trkpt>
      <trkpt lat="46.63648" lon="5.91429">
        <ele>791</ele>
        <time>2015-06-22T10:40:06Z</time>
      </trkpt>
      <trkpt lat="46.63646" lon="5.91408">
        <ele>790</ele>
        <time>2015-06-22T10:40:29Z</time>
      </trkpt>
      <trkpt lat="46.63648" lon="5.91398">
        <ele>790</ele>
        <time>2015-06-22T10:41:16Z</time>
      </trkpt>
      <trkpt lat="46.63641" lon="5.91389">
        <ele>791</ele>
        <time>2015-06-22T10:41:30Z</time>
      </trkpt>
      <trkpt lat="46.63636" lon="5.91403">
        <ele>792</ele>
        <time>2015-06-22T10:42:16Z</time>
      </trkpt>
      <trkpt lat="46.63636" lon="5.91416">
        <ele>791</ele>
        <time>2015-06-22T10:42:24Z</time>
      </trkpt>
      <trkpt lat="46.63639" lon="5.91429">
        <ele>791</ele>
        <time>2015-06-22T10:42:31Z</time>
      </trkpt>
      <trkpt lat="46.63644" lon="5.91443">
        <ele>792</ele>
        <time>2015-06-22T10:42:39Z</time>
      </trkpt>
      <trkpt lat="46.63651" lon="5.91447">
        <ele>793</ele>
        <time>2015-06-22T10:42:57Z</time>
      </trkpt>
      <trkpt lat="46.63656" lon="5.91433">
        <ele>794</ele>
        <time>2015-06-22T10:43:29Z</time>
      </trkpt>
      <trkpt lat="46.63676" lon="5.91424">
        <ele>793</ele>
        <time>2015-06-22T10:43:44Z</time>
      </trkpt>
      <trkpt lat="46.63689" lon="5.91427">
        <ele>792</ele>
        <time>2015-06-22T10:43:50Z</time>
      </trkpt>
      <trkpt lat="46.63698" lon="5.91423">
        <ele>791</ele>
        <time>2015-06-22T10:44:00Z</time>
      </trkpt>
      <trkpt lat="46.63705" lon="5.91414">
        <ele>791</ele>
        <time>2015-06-22T10:44:10Z</time>
      </trkpt>
      <trkpt lat="46.63721" lon="5.91401">
        <ele>790</ele>
        <time>2015-06-22T10:44:25Z</time>
      </trkpt>
      <trkpt lat="46.63722" lon="5.91388">
        <ele>790</ele>
        <time>2015-06-22T10:44:33Z</time>
      </trkpt>
      <trkpt lat="46.63724" lon="5.91375">
        <ele>791</ele>
        <time>2015-06-22T10:44:40Z</time>
      </trkpt>
      <trkpt lat="46.63735" lon="5.91336">
        <ele>790</ele>
        <time>2015-06-22T10:45:12Z</time>
      </trkpt>
      <trkpt lat="46.63739" lon="5.91322">
        <ele>790</ele>
        <time>2015-06-22T10:45:22Z</time>
      </trkpt>
      <trkpt lat="46.63764" lon="5.91303">
        <ele>788</ele>
        <time>2015-06-22T10:45:47Z</time>
      </trkpt>
      <trkpt lat="46.6377" lon="5.91292">
        <ele>786</ele>
        <time>2015-06-22T10:45:56Z</time>
      </trkpt>
      <trkpt lat="46.63771" lon="5.91266">
        <ele>782</ele>
        <time>2015-06-22T10:46:15Z</time>
      </trkpt>
      <trkpt lat="46.63769" lon="5.91252">
        <ele>781</ele>
        <time>2015-06-22T10:46:24Z</time>
      </trkpt>
      <trkpt lat="46.63777" lon="5.91246">
        <ele>779</ele>
        <time>2015-06-22T10:46:37Z</time>
      </trkpt>
      <trkpt lat="46.63785" lon="5.91239">
        <ele>778</ele>
        <time>2015-06-22T10:46:48Z</time>
      </trkpt>
      <trkpt lat="46.63786" lon="5.91226">
        <ele>776</ele>
        <time>2015-06-22T10:46:55Z</time>
      </trkpt>
      <trkpt lat="46.63791" lon="5.91215">
        <ele>776</ele>
        <time>2015-06-22T10:47:30Z</time>
      </trkpt>
      <trkpt lat="46.63785" lon="5.91216">
        <ele>775</ele>
        <time>2015-06-22T10:47:56Z</time>
      </trkpt>
      <trkpt lat="46.63779" lon="5.91242">
        <ele>771</ele>
        <time>2015-06-22T10:48:25Z</time>
      </trkpt>
      <trkpt lat="46.63772" lon="5.91251">
        <ele>770</ele>
        <time>2015-06-22T10:48:37Z</time>
      </trkpt>
      <trkpt lat="46.63771" lon="5.91265">
        <ele>769</ele>
        <time>2015-06-22T10:48:48Z</time>
      </trkpt>
      <trkpt lat="46.63776" lon="5.9126">
        <ele>767</ele>
        <time>2015-06-22T10:50:04Z</time>
      </trkpt>
      <trkpt lat="46.63785" lon="5.91266">
        <ele>767</ele>
        <time>2015-06-22T10:50:10Z</time>
      </trkpt>
      <trkpt lat="46.63795" lon="5.91266">
        <ele>769</ele>
        <time>2015-06-22T10:50:21Z</time>
      </trkpt>
      <trkpt lat="46.63804" lon="5.91271">
        <ele>769</ele>
        <time>2015-06-22T10:50:29Z</time>
      </trkpt>
      <trkpt lat="46.63813" lon="5.91268">
        <ele>769</ele>
        <time>2015-06-22T10:50:42Z</time>
      </trkpt>
      <trkpt lat="46.63821" lon="5.91259">
        <ele>770</ele>
        <time>2015-06-22T10:50:50Z</time>
      </trkpt>
      <trkpt lat="46.6383" lon="5.91259">
        <ele>771</ele>
        <time>2015-06-22T10:51:03Z</time>
      </trkpt>
      <trkpt lat="46.63838" lon="5.91269">
        <ele>771</ele>
        <time>2015-06-22T10:51:16Z</time>
      </trkpt>
      <trkpt lat="46.63842" lon="5.91273">
        <ele>770</ele>
        <time>2015-06-22T10:51:27Z</time>
      </trkpt>
      <trkpt lat="46.6386" lon="5.91272">
        <ele>769</ele>
        <time>2015-06-22T10:51:51Z</time>
      </trkpt>
      <trkpt lat="46.6387" lon="5.91271">
        <ele>770</ele>
        <time>2015-06-22T10:52:03Z</time>
      </trkpt>
      <trkpt lat="46.63877" lon="5.91262">
        <ele>770</ele>
        <time>2015-06-22T10:52:11Z</time>
      </trkpt>
      <trkpt lat="46.63886" lon="5.91262">
        <ele>771</ele>
        <time>2015-06-22T10:52:19Z</time>
      </trkpt>
      <trkpt lat="46.6389" lon="5.91249">
        <ele>772</ele>
        <time>2015-06-22T10:52:29Z</time>
      </trkpt>
      <trkpt lat="46.63895" lon="5.91237">
        <ele>772</ele>
        <time>2015-06-22T10:52:42Z</time>
      </trkpt>
      <trkpt lat="46.63901" lon="5.91212">
        <ele>770</ele>
        <time>2015-06-22T10:53:07Z</time>
      </trkpt>
      <trkpt lat="46.63911" lon="5.91205">
        <ele>769</ele>
        <time>2015-06-22T10:53:26Z</time>
      </trkpt>
      <trkpt lat="46.63914" lon="5.91193">
        <ele>766</ele>
        <time>2015-06-22T10:53:40Z</time>
      </trkpt>
      <trkpt lat="46.63911" lon="5.9118">
        <ele>764</ele>
        <time>2015-06-22T10:53:49Z</time>
      </trkpt>
      <trkpt lat="46.63914" lon="5.91166">
        <ele>762</ele>
        <time>2015-06-22T10:54:00Z</time>
      </trkpt>
      <trkpt lat="46.63913" lon="5.91152">
        <ele>763</ele>
        <time>2015-06-22T10:54:11Z</time>
      </trkpt>
      <trkpt lat="46.63915" lon="5.91139">
        <ele>763</ele>
        <time>2015-06-22T10:54:17Z</time>
      </trkpt>
      <trkpt lat="46.63914" lon="5.91125">
        <ele>763</ele>
        <time>2015-06-22T10:54:26Z</time>
      </trkpt>
      <trkpt lat="46.63913" lon="5.91098">
        <ele>762</ele>
        <time>2015-06-22T10:54:41Z</time>
      </trkpt>
      <trkpt lat="46.63909" lon="5.91057">
        <ele>763</ele>
        <time>2015-06-22T10:55:11Z</time>
      </trkpt>
      <trkpt lat="46.63903" lon="5.9103">
        <ele>764</ele>
        <time>2015-06-22T10:55:31Z</time>
      </trkpt>
      <trkpt lat="46.63898" lon="5.91018">
        <ele>764</ele>
        <time>2015-06-22T10:55:38Z</time>
      </trkpt>
      <trkpt lat="46.63904" lon="5.91005">
        <ele>763</ele>
        <time>2015-06-22T10:55:43Z</time>
      </trkpt>
      <trkpt lat="46.639" lon="5.90992">
        <ele>763</ele>
        <time>2015-06-22T10:55:53Z</time>
      </trkpt>
      <trkpt lat="46.63895" lon="5.90937">
        <ele>761</ele>
        <time>2015-06-22T10:56:32Z</time>
      </trkpt>
      <trkpt lat="46.63891" lon="5.90924">
        <ele>761</ele>
        <time>2015-06-22T10:56:42Z</time>
      </trkpt>
      <trkpt lat="46.63895" lon="5.90912">
        <ele>760</ele>
        <time>2015-06-22T10:56:51Z</time>
      </trkpt>
      <trkpt lat="46.63892" lon="5.90899">
        <ele>760</ele>
        <time>2015-06-22T10:57:00Z</time>
      </trkpt>
      <trkpt lat="46.63889" lon="5.90886">
        <ele>760</ele>
        <time>2015-06-22T10:57:08Z</time>
      </trkpt>
      <trkpt lat="46.63895" lon="5.90877">
        <ele>761</ele>
        <time>2015-06-22T10:57:25Z</time>
      </trkpt>
      <trkpt lat="46.63904" lon="5.90873">
        <ele>761</ele>
        <time>2015-06-22T10:57:32Z</time>
      </trkpt>
      <trkpt lat="46.63923" lon="5.90867">
        <ele>766</ele>
        <time>2015-06-22T10:57:55Z</time>
      </trkpt>
      <trkpt lat="46.6393" lon="5.90857">
        <ele>766</ele>
        <time>2015-06-22T10:58:03Z</time>
      </trkpt>
      <trkpt lat="46.63937" lon="5.90846">
        <ele>765</ele>
        <time>2015-06-22T10:58:09Z</time>
      </trkpt>
      <trkpt lat="46.63954" lon="5.90835">
        <ele>763</ele>
        <time>2015-06-22T10:58:25Z</time>
      </trkpt>
      <trkpt lat="46.6396" lon="5.90822">
        <ele>762</ele>
        <time>2015-06-22T10:58:34Z</time>
      </trkpt>
      <trkpt lat="46.6398" lon="5.90795">
        <ele>765</ele>
        <time>2015-06-22T10:59:00Z</time>
      </trkpt>
      <trkpt lat="46.63989" lon="5.90788">
        <ele>765</ele>
        <time>2015-06-22T10:59:15Z</time>
      </trkpt>
      <trkpt lat="46.64007" lon="5.90782">
        <ele>763</ele>
        <time>2015-06-22T10:59:30Z</time>
      </trkpt>
      <trkpt lat="46.64016" lon="5.90785">
        <ele>762</ele>
        <time>2015-06-22T10:59:38Z</time>
      </trkpt>
      <trkpt lat="46.64025" lon="5.90787">
        <ele>762</ele>
        <time>2015-06-22T10:59:47Z</time>
      </trkpt>
      <trkpt lat="46.64052" lon="5.9079">
        <ele>764</ele>
        <time>2015-06-22T11:00:16Z</time>
      </trkpt>
      <trkpt lat="46.64057" lon="5.90804">
        <ele>765</ele>
        <time>2015-06-22T11:00:30Z</time>
      </trkpt>
      <trkpt lat="46.64061" lon="5.90818">
        <ele>766</ele>
        <time>2015-06-22T11:00:38Z</time>
      </trkpt>
      <trkpt lat="46.64063" lon="5.90832">
        <ele>766</ele>
        <time>2015-06-22T11:00:46Z</time>
      </trkpt>
      <trkpt lat="46.64065" lon="5.90839">
        <ele>766</ele>
        <time>2015-06-22T11:00:51Z</time>
      </trkpt>
      <trkpt lat="46.64068" lon="5.90845">
        <ele>766</ele>
        <time>2015-06-22T11:00:56Z</time>
      </trkpt>
      <trkpt lat="46.6407" lon="5.90852">
        <ele>767</ele>
        <time>2015-06-22T11:01:01Z</time>
      </trkpt>
      <trkpt lat="46.64073" lon="5.90858">
        <ele>767</ele>
        <time>2015-06-22T11:01:06Z</time>
      </trkpt>
      <trkpt lat="46.64082" lon="5.90884">
        <ele>765</ele>
        <time>2015-06-22T11:01:28Z</time>
      </trkpt>
      <trkpt lat="46.64084" lon="5.90885">
        <ele>764</ele>
        <time>2015-06-22T11:01:35Z</time>
      </trkpt>
      <trkpt lat="46.64087" lon="5.90891">
        <ele>762</ele>
        <time>2015-06-22T11:01:41Z</time>
      </trkpt>
      <trkpt lat="46.64088" lon="5.90899">
        <ele>762</ele>
        <time>2015-06-22T11:01:47Z</time>
      </trkpt>
      <trkpt lat="46.6409" lon="5.90905">
        <ele>762</ele>
        <time>2015-06-22T11:01:52Z</time>
      </trkpt>
      <trkpt lat="46.64094" lon="5.90909">
        <ele>763</ele>
        <time>2015-06-22T11:01:58Z</time>
      </trkpt>
      <trkpt lat="46.64099" lon="5.90929">
        <ele>765</ele>
        <time>2015-06-22T11:02:13Z</time>
      </trkpt>
      <trkpt lat="46.64102" lon="5.90935">
        <ele>766</ele>
        <time>2015-06-22T11:02:20Z</time>
      </trkpt>
      <trkpt lat="46.64104" lon="5.90942">
        <ele>764</ele>
        <time>2015-06-22T11:02:27Z</time>
      </trkpt>
      <trkpt lat="46.64107" lon="5.90947">
        <ele>764</ele>
        <time>2015-06-22T11:02:32Z</time>
      </trkpt>
      <trkpt lat="46.64106" lon="5.90954">
        <ele>764</ele>
        <time>2015-06-22T11:02:38Z</time>
      </trkpt>
      <trkpt lat="46.64105" lon="5.90961">
        <ele>764</ele>
        <time>2015-06-22T11:02:44Z</time>
      </trkpt>
      <trkpt lat="46.64108" lon="5.90963">
        <ele>761</ele>
        <time>2015-06-22T11:03:11Z</time>
      </trkpt>
      <trkpt lat="46.64112" lon="5.90958">
        <ele>757</ele>
        <time>2015-06-22T11:03:51Z</time>
      </trkpt>
      <trkpt lat="46.64119" lon="5.90962">
        <ele>754</ele>
        <time>2015-06-22T11:07:47Z</time>
      </trkpt>
      <trkpt lat="46.64111" lon="5.90967">
        <ele>754</ele>
        <time>2015-06-22T11:09:47Z</time>
      </trkpt>
      <trkpt lat="46.64107" lon="5.90926">
        <ele>749</ele>
        <time>2015-06-22T11:44:17Z</time>
      </trkpt>
      <trkpt lat="46.64103" lon="5.90921">
        <ele>749</ele>
        <time>2015-06-22T11:44:21Z</time>
      </trkpt>
      <trkpt lat="46.64101" lon="5.90915">
        <ele>749</ele>
        <time>2015-06-22T11:44:25Z</time>
      </trkpt>
      <trkpt lat="46.64099" lon="5.90909">
        <ele>749</ele>
        <time>2015-06-22T11:44:29Z</time>
      </trkpt>
      <trkpt lat="46.64094" lon="5.90888">
        <ele>750</ele>
        <time>2015-06-22T11:44:44Z</time>
      </trkpt>
      <trkpt lat="46.64092" lon="5.9088">
        <ele>750</ele>
        <time>2015-06-22T11:44:49Z</time>
      </trkpt>
      <trkpt lat="46.64088" lon="5.90874">
        <ele>750</ele>
        <time>2015-06-22T11:44:54Z</time>
      </trkpt>
      <trkpt lat="46.64084" lon="5.90861">
        <ele>752</ele>
        <time>2015-06-22T11:45:04Z</time>
      </trkpt>
      <trkpt lat="46.64079" lon="5.90848">
        <ele>752</ele>
        <time>2015-06-22T11:45:13Z</time>
      </trkpt>
      <trkpt lat="46.64074" lon="5.90837">
        <ele>753</ele>
        <time>2015-06-22T11:45:23Z</time>
      </trkpt>
      <trkpt lat="46.6406" lon="5.90792">
        <ele>758</ele>
        <time>2015-06-22T11:46:00Z</time>
      </trkpt>
      <trkpt lat="46.64051" lon="5.90784">
        <ele>758</ele>
        <time>2015-06-22T11:46:09Z</time>
      </trkpt>
      <trkpt lat="46.64043" lon="5.90779">
        <ele>758</ele>
        <time>2015-06-22T11:46:24Z</time>
      </trkpt>
      <trkpt lat="46.64033" lon="5.90778">
        <ele>757</ele>
        <time>2015-06-22T11:46:36Z</time>
      </trkpt>
      <trkpt lat="46.64005" lon="5.90777">
        <ele>757</ele>
        <time>2015-06-22T11:47:01Z</time>
      </trkpt>
      <trkpt lat="46.63995" lon="5.9078">
        <ele>758</ele>
        <time>2015-06-22T11:47:11Z</time>
      </trkpt>
      <trkpt lat="46.63985" lon="5.90781">
        <ele>758</ele>
        <time>2015-06-22T11:47:20Z</time>
      </trkpt>
      <trkpt lat="46.63977" lon="5.90788">
        <ele>757</ele>
        <time>2015-06-22T11:47:33Z</time>
      </trkpt>
      <trkpt lat="46.63973" lon="5.908">
        <ele>758</ele>
        <time>2015-06-22T11:47:43Z</time>
      </trkpt>
      <trkpt lat="46.63945" lon="5.90834">
        <ele>758</ele>
        <time>2015-06-22T11:48:21Z</time>
      </trkpt>
      <trkpt lat="46.63933" lon="5.90837">
        <ele>758</ele>
        <time>2015-06-22T11:48:37Z</time>
      </trkpt>
      <trkpt lat="46.63909" lon="5.90863">
        <ele>757</ele>
        <time>2015-06-22T11:49:02Z</time>
      </trkpt>
      <trkpt lat="46.6388" lon="5.90885">
        <ele>763</ele>
        <time>2015-06-22T11:49:40Z</time>
      </trkpt>
      <trkpt lat="46.63866" lon="5.90902">
        <ele>763</ele>
        <time>2015-06-22T11:50:01Z</time>
      </trkpt>
      <trkpt lat="46.63861" lon="5.90913">
        <ele>763</ele>
        <time>2015-06-22T11:50:10Z</time>
      </trkpt>
      <trkpt lat="46.63856" lon="5.90924">
        <ele>765</ele>
        <time>2015-06-22T11:50:22Z</time>
      </trkpt>
      <trkpt lat="46.63849" lon="5.90935">
        <ele>765</ele>
        <time>2015-06-22T11:50:34Z</time>
      </trkpt>
      <trkpt lat="46.63841" lon="5.9094">
        <ele>765</ele>
        <time>2015-06-22T11:50:45Z</time>
      </trkpt>
      <trkpt lat="46.63833" lon="5.90948">
        <ele>763</ele>
        <time>2015-06-22T11:50:57Z</time>
      </trkpt>
      <trkpt lat="46.6383" lon="5.90962">
        <ele>762</ele>
        <time>2015-06-22T11:51:09Z</time>
      </trkpt>
      <trkpt lat="46.6381" lon="5.90991">
        <ele>763</ele>
        <time>2015-06-22T11:51:38Z</time>
      </trkpt>
      <trkpt lat="46.63794" lon="5.91004">
        <ele>765</ele>
        <time>2015-06-22T11:52:00Z</time>
      </trkpt>
      <trkpt lat="46.63786" lon="5.91012">
        <ele>765</ele>
        <time>2015-06-22T11:52:11Z</time>
      </trkpt>
      <trkpt lat="46.63779" lon="5.91021">
        <ele>765</ele>
        <time>2015-06-22T11:52:23Z</time>
      </trkpt>
      <trkpt lat="46.63771" lon="5.91028">
        <ele>765</ele>
        <time>2015-06-22T11:52:31Z</time>
      </trkpt>
      <trkpt lat="46.6377" lon="5.91042">
        <ele>766</ele>
        <time>2015-06-22T11:52:42Z</time>
      </trkpt>
      <trkpt lat="46.63765" lon="5.91069">
        <ele>768</ele>
        <time>2015-06-22T11:53:02Z</time>
      </trkpt>
      <trkpt lat="46.63753" lon="5.91089">
        <ele>770</ele>
        <time>2015-06-22T11:53:25Z</time>
      </trkpt>
      <trkpt lat="46.63744" lon="5.9109">
        <ele>771</ele>
        <time>2015-06-22T11:53:33Z</time>
      </trkpt>
      <trkpt lat="46.63734" lon="5.91092">
        <ele>772</ele>
        <time>2015-06-22T11:53:42Z</time>
      </trkpt>
      <trkpt lat="46.63726" lon="5.911">
        <ele>773</ele>
        <time>2015-06-22T11:53:50Z</time>
      </trkpt>
      <trkpt lat="46.6371" lon="5.9115">
        <ele>779</ele>
        <time>2015-06-22T11:54:29Z</time>
      </trkpt>
      <trkpt lat="46.63701" lon="5.91204">
        <ele>784</ele>
        <time>2015-06-22T11:55:05Z</time>
      </trkpt>
      <trkpt lat="46.63706" lon="5.9123">
        <ele>785</ele>
        <time>2015-06-22T11:55:22Z</time>
      </trkpt>
      <trkpt lat="46.63704" lon="5.91243">
        <ele>786</ele>
        <time>2015-06-22T11:55:32Z</time>
      </trkpt>
      <trkpt lat="46.63699" lon="5.91256">
        <ele>786</ele>
        <time>2015-06-22T11:55:41Z</time>
      </trkpt>
      <trkpt lat="46.637" lon="5.91269">
        <ele>786</ele>
        <time>2015-06-22T11:55:50Z</time>
      </trkpt>
      <trkpt lat="46.63702" lon="5.91283">
        <ele>786</ele>
        <time>2015-06-22T11:55:58Z</time>
      </trkpt>
      <trkpt lat="46.63698" lon="5.91295">
        <ele>785</ele>
        <time>2015-06-22T11:56:06Z</time>
      </trkpt>
      <trkpt lat="46.63681" lon="5.91308">
        <ele>782</ele>
        <time>2015-06-22T11:56:24Z</time>
      </trkpt>
      <trkpt lat="46.63668" lon="5.91325">
        <ele>782</ele>
        <time>2015-06-22T11:56:39Z</time>
      </trkpt>
      <trkpt lat="46.63652" lon="5.91361">
        <ele>782</ele>
        <time>2015-06-22T11:57:05Z</time>
      </trkpt>
      <trkpt lat="46.63642" lon="5.91383">
        <ele>781</ele>
        <time>2015-06-22T11:57:22Z</time>
      </trkpt>
      <trkpt lat="46.6363" lon="5.91404">
        <ele>781</ele>
        <time>2015-06-22T11:57:36Z</time>
      </trkpt>
      <trkpt lat="46.63622" lon="5.91429">
        <ele>782</ele>
        <time>2015-06-22T11:57:48Z</time>
      </trkpt>
      <trkpt lat="46.6362" lon="5.91443">
        <ele>783</ele>
        <time>2015-06-22T11:57:58Z</time>
      </trkpt>
      <trkpt lat="46.63609" lon="5.91465">
        <ele>785</ele>
        <time>2015-06-22T11:58:15Z</time>
      </trkpt>
      <trkpt lat="46.63593" lon="5.91478">
        <ele>785</ele>
        <time>2015-06-22T11:58:32Z</time>
      </trkpt>
      <trkpt lat="46.63568" lon="5.91498">
        <ele>782</ele>
        <time>2015-06-22T11:58:57Z</time>
      </trkpt>
      <trkpt lat="46.63558" lon="5.91501">
        <ele>781</ele>
        <time>2015-06-22T11:59:04Z</time>
      </trkpt>
      <trkpt lat="46.6355" lon="5.91508">
        <ele>782</ele>
        <time>2015-06-22T11:59:13Z</time>
      </trkpt>
      <trkpt lat="46.6354" lon="5.9151">
        <ele>784</ele>
        <time>2015-06-22T11:59:22Z</time>
      </trkpt>
      <trkpt lat="46.63531" lon="5.91516">
        <ele>784</ele>
        <time>2015-06-22T11:59:31Z</time>
      </trkpt>
      <trkpt lat="46.63515" lon="5.91542">
        <ele>782</ele>
        <time>2015-06-22T11:59:50Z</time>
      </trkpt>
      <trkpt lat="46.63504" lon="5.91558">
        <ele>782</ele>
        <time>2015-06-22T12:00:03Z</time>
      </trkpt>
      <trkpt lat="46.63488" lon="5.91579">
        <ele>781</ele>
        <time>2015-06-22T12:00:20Z</time>
      </trkpt>
      <trkpt lat="46.63479" lon="5.91594">
        <ele>781</ele>
        <time>2015-06-22T12:00:30Z</time>
      </trkpt>
      <trkpt lat="46.63475" lon="5.91603">
        <ele>781</ele>
        <time>2015-06-22T12:00:37Z</time>
      </trkpt>
      <trkpt lat="46.63472" lon="5.91609">
        <ele>780</ele>
        <time>2015-06-22T12:00:41Z</time>
      </trkpt>
      <trkpt lat="46.63444" lon="5.9165">
        <ele>778</ele>
        <time>2015-06-22T12:01:13Z</time>
      </trkpt>
      <trkpt lat="46.6344" lon="5.91656">
        <ele>778</ele>
        <time>2015-06-22T12:01:17Z</time>
      </trkpt>
      <trkpt lat="46.63419" lon="5.91712">
        <ele>773</ele>
        <time>2015-06-22T12:01:54Z</time>
      </trkpt>
      <trkpt lat="46.63407" lon="5.91747">
        <ele>772</ele>
        <time>2015-06-22T12:02:18Z</time>
      </trkpt>
      <trkpt lat="46.63404" lon="5.9176">
        <ele>771</ele>
        <time>2015-06-22T12:02:26Z</time>
      </trkpt>
      <trkpt lat="46.63395" lon="5.91785">
        <ele>771</ele>
        <time>2015-06-22T12:02:41Z</time>
      </trkpt>
      <trkpt lat="46.63387" lon="5.91794">
        <ele>771</ele>
        <time>2015-06-22T12:02:49Z</time>
      </trkpt>
      <trkpt lat="46.63377" lon="5.91795">
        <ele>770</ele>
        <time>2015-06-22T12:02:56Z</time>
      </trkpt>
      <trkpt lat="46.63358" lon="5.91797">
        <ele>770</ele>
        <time>2015-06-22T12:03:13Z</time>
      </trkpt>
      <trkpt lat="46.63338" lon="5.91799">
        <ele>768</ele>
        <time>2015-06-22T12:03:34Z</time>
      </trkpt>
      <trkpt lat="46.6333" lon="5.91807">
        <ele>767</ele>
        <time>2015-06-22T12:03:41Z</time>
      </trkpt>
      <trkpt lat="46.63322" lon="5.91817">
        <ele>766</ele>
        <time>2015-06-22T12:03:49Z</time>
      </trkpt>
      <trkpt lat="46.63309" lon="5.91838">
        <ele>764</ele>
        <time>2015-06-22T12:04:10Z</time>
      </trkpt>
      <trkpt lat="46.63308" lon="5.91846">
        <ele>764</ele>
        <time>2015-06-22T12:04:15Z</time>
      </trkpt>
      <trkpt lat="46.63305" lon="5.91859">
        <ele>764</ele>
        <time>2015-06-22T12:04:23Z</time>
      </trkpt>
      <trkpt lat="46.63303" lon="5.91874">
        <ele>765</ele>
        <time>2015-06-22T12:04:32Z</time>
      </trkpt>
      <trkpt lat="46.63302" lon="5.91881">
        <ele>766</ele>
        <time>2015-06-22T12:04:38Z</time>
      </trkpt>
      <trkpt lat="46.63297" lon="5.91883">
        <ele>767</ele>
        <time>2015-06-22T12:04:42Z</time>
      </trkpt>
      <trkpt lat="46.63287" lon="5.91884">
        <ele>768</ele>
        <time>2015-06-22T12:04:51Z</time>
      </trkpt>
      <trkpt lat="46.63284" lon="5.91879">
        <ele>767</ele>
        <time>2015-06-22T12:04:55Z</time>
      </trkpt>
      <trkpt lat="46.63281" lon="5.91874">
        <ele>767</ele>
        <time>2015-06-22T12:04:59Z</time>
      </trkpt>
      <trkpt lat="46.63278" lon="5.91867">
        <ele>767</ele>
        <time>2015-06-22T12:05:04Z</time>
      </trkpt>
      <trkpt lat="46.63252" lon="5.91843">
        <ele>767</ele>
        <time>2015-06-22T12:05:27Z</time>
      </trkpt>
      <trkpt lat="46.63248" lon="5.91842">
        <ele>767</ele>
        <time>2015-06-22T12:05:32Z</time>
      </trkpt>
      <trkpt lat="46.6324" lon="5.91852">
        <ele>767</ele>
        <time>2015-06-22T12:05:41Z</time>
      </trkpt>
      <trkpt lat="46.63233" lon="5.91861">
        <ele>769</ele>
        <time>2015-06-22T12:05:49Z</time>
      </trkpt>
      <trkpt lat="46.63223" lon="5.91862">
        <ele>770</ele>
        <time>2015-06-22T12:05:58Z</time>
      </trkpt>
      <trkpt lat="46.63213" lon="5.91862">
        <ele>770</ele>
        <time>2015-06-22T12:06:06Z</time>
      </trkpt>
      <trkpt lat="46.63204" lon="5.91862">
        <ele>771</ele>
        <time>2015-06-22T12:06:13Z</time>
      </trkpt>
      <trkpt lat="46.63195" lon="5.91854">
        <ele>770</ele>
        <time>2015-06-22T12:06:21Z</time>
      </trkpt>
      <trkpt lat="46.63182" lon="5.91836">
        <ele>769</ele>
        <time>2015-06-22T12:06:35Z</time>
      </trkpt>
      <trkpt lat="46.6315" lon="5.918">
        <ele>768</ele>
        <time>2015-06-22T12:07:05Z</time>
      </trkpt>
      <trkpt lat="46.63143" lon="5.9179">
        <ele>768</ele>
        <time>2015-06-22T12:07:12Z</time>
      </trkpt>
      <trkpt lat="46.63117" lon="5.9175">
        <ele>768</ele>
        <time>2015-06-22T12:07:45Z</time>
      </trkpt>
      <trkpt lat="46.63111" lon="5.9174">
        <ele>768</ele>
        <time>2015-06-22T12:07:52Z</time>
      </trkpt>
      <trkpt lat="46.63103" lon="5.91731">
        <ele>769</ele>
        <time>2015-06-22T12:08:02Z</time>
      </trkpt>
      <trkpt lat="46.631" lon="5.91725">
        <ele>769</ele>
        <time>2015-06-22T12:08:06Z</time>
      </trkpt>
      <trkpt lat="46.63097" lon="5.91719">
        <ele>768</ele>
        <time>2015-06-22T12:08:11Z</time>
      </trkpt>
      <trkpt lat="46.6309" lon="5.91707">
        <ele>768</ele>
        <time>2015-06-22T12:08:19Z</time>
      </trkpt>
      <trkpt lat="46.63086" lon="5.91695">
        <ele>768</ele>
        <time>2015-06-22T12:08:25Z</time>
      </trkpt>
      <trkpt lat="46.63075" lon="5.9167">
        <ele>770</ele>
        <time>2015-06-22T12:08:44Z</time>
      </trkpt>
      <trkpt lat="46.63071" lon="5.91655">
        <ele>771</ele>
        <time>2015-06-22T12:08:51Z</time>
      </trkpt>
      <trkpt lat="46.63064" lon="5.91644">
        <ele>770</ele>
        <time>2015-06-22T12:08:59Z</time>
      </trkpt>
      <trkpt lat="46.6306" lon="5.91638">
        <ele>770</ele>
        <time>2015-06-22T12:09:03Z</time>
      </trkpt>
      <trkpt lat="46.63055" lon="5.91626">
        <ele>770</ele>
        <time>2015-06-22T12:09:10Z</time>
      </trkpt>
      <trkpt lat="46.63049" lon="5.91614">
        <ele>770</ele>
        <time>2015-06-22T12:09:17Z</time>
      </trkpt>
      <trkpt lat="46.63029" lon="5.91581">
        <ele>769</ele>
        <time>2015-06-22T12:09:39Z</time>
      </trkpt>
      <trkpt lat="46.63024" lon="5.91569">
        <ele>769</ele>
        <time>2015-06-22T12:09:48Z</time>
      </trkpt>
      <trkpt lat="46.62996" lon="5.91532">
        <ele>768</ele>
        <time>2015-06-22T12:10:20Z</time>
      </trkpt>
      <trkpt lat="46.6299" lon="5.91522">
        <ele>768</ele>
        <time>2015-06-22T12:10:27Z</time>
      </trkpt>
      <trkpt lat="46.62982" lon="5.91514">
        <ele>769</ele>
        <time>2015-06-22T12:10:34Z</time>
      </trkpt>
      <trkpt lat="46.62957" lon="5.91473">
        <ele>769</ele>
        <time>2015-06-22T12:11:06Z</time>
      </trkpt>
      <trkpt lat="46.6293" lon="5.91434">
        <ele>769</ele>
        <time>2015-06-22T12:11:37Z</time>
      </trkpt>
      <trkpt lat="46.62904" lon="5.91393">
        <ele>771</ele>
        <time>2015-06-22T12:12:07Z</time>
      </trkpt>
      <trkpt lat="46.62873" lon="5.9136">
        <ele>772</ele>
        <time>2015-06-22T12:12:39Z</time>
      </trkpt>
      <trkpt lat="46.62847" lon="5.91318">
        <ele>771</ele>
        <time>2015-06-22T12:13:08Z</time>
      </trkpt>
      <trkpt lat="46.6284" lon="5.91308">
        <ele>772</ele>
        <time>2015-06-22T12:13:17Z</time>
      </trkpt>
      <trkpt lat="46.62824" lon="5.91294">
        <ele>772</ele>
        <time>2015-06-22T12:13:32Z</time>
      </trkpt>
      <trkpt lat="46.62805" lon="5.91288">
        <ele>771</ele>
        <time>2015-06-22T12:13:49Z</time>
      </trkpt>
      <trkpt lat="46.62798" lon="5.91278">
        <ele>771</ele>
        <time>2015-06-22T12:13:57Z</time>
      </trkpt>
      <trkpt lat="46.62793" lon="5.91266">
        <ele>770</ele>
        <time>2015-06-22T12:14:03Z</time>
      </trkpt>
      <trkpt lat="46.62789" lon="5.91254">
        <ele>771</ele>
        <time>2015-06-22T12:14:10Z</time>
      </trkpt>
      <trkpt lat="46.6278" lon="5.91251">
        <ele>770</ele>
        <time>2015-06-22T12:14:18Z</time>
      </trkpt>
      <trkpt lat="46.6277" lon="5.91252">
        <ele>770</ele>
        <time>2015-06-22T12:14:27Z</time>
      </trkpt>
      <trkpt lat="46.62754" lon="5.91242">
        <ele>769</ele>
        <time>2015-06-22T12:14:41Z</time>
      </trkpt>
      <trkpt lat="46.62725" lon="5.91206">
        <ele>768</ele>
        <time>2015-06-22T12:15:15Z</time>
      </trkpt>
      <trkpt lat="46.62688" lon="5.91163">
        <ele>771</ele>
        <time>2015-06-22T12:15:49Z</time>
      </trkpt>
      <trkpt lat="46.62672" lon="5.9115">
        <ele>772</ele>
        <time>2015-06-22T12:16:06Z</time>
      </trkpt>
      <trkpt lat="46.62635" lon="5.91104">
        <ele>769</ele>
        <time>2015-06-22T12:16:44Z</time>
      </trkpt>
      <trkpt lat="46.62628" lon="5.91094">
        <ele>769</ele>
        <time>2015-06-22T12:16:52Z</time>
      </trkpt>
      <trkpt lat="46.62606" lon="5.91066">
        <ele>772</ele>
        <time>2015-06-22T12:17:19Z</time>
      </trkpt>
      <trkpt lat="46.62592" lon="5.91048">
        <ele>772</ele>
        <time>2015-06-22T12:17:33Z</time>
      </trkpt>
      <trkpt lat="46.62584" lon="5.9104">
        <ele>773</ele>
        <time>2015-06-22T12:17:41Z</time>
      </trkpt>
      <trkpt lat="46.62568" lon="5.91024">
        <ele>774</ele>
        <time>2015-06-22T12:17:57Z</time>
      </trkpt>
      <trkpt lat="46.62553" lon="5.91009">
        <ele>774</ele>
        <time>2015-06-22T12:18:15Z</time>
      </trkpt>
      <trkpt lat="46.62542" lon="5.90986">
        <ele>774</ele>
        <time>2015-06-22T12:18:29Z</time>
      </trkpt>
      <trkpt lat="46.62535" lon="5.90975">
        <ele>775</ele>
        <time>2015-06-22T12:18:38Z</time>
      </trkpt>
      <trkpt lat="46.62507" lon="5.90936">
        <ele>774</ele>
        <time>2015-06-22T12:19:12Z</time>
      </trkpt>
      <trkpt lat="46.62492" lon="5.90918">
        <ele>775</ele>
        <time>2015-06-22T12:19:28Z</time>
      </trkpt>
      <trkpt lat="46.62487" lon="5.90913">
        <ele>776</ele>
        <time>2015-06-22T12:19:43Z</time>
      </trkpt>
      <trkpt lat="46.6248" lon="5.90902">
        <ele>775</ele>
        <time>2015-06-22T12:20:11Z</time>
      </trkpt>
      <trkpt lat="46.62444" lon="5.90879">
        <ele>771</ele>
        <time>2015-06-22T12:20:42Z</time>
      </trkpt>
      <trkpt lat="46.62437" lon="5.90869">
        <ele>772</ele>
        <time>2015-06-22T12:20:49Z</time>
      </trkpt>
      <trkpt lat="46.6242" lon="5.90854">
        <ele>774</ele>
        <time>2015-06-22T12:21:06Z</time>
      </trkpt>
      <trkpt lat="46.62388" lon="5.90822">
        <ele>775</ele>
        <time>2015-06-22T12:21:31Z</time>
      </trkpt>
      <trkpt lat="46.62384" lon="5.90818">
        <ele>775</ele>
        <time>2015-06-22T12:21:34Z</time>
      </trkpt>
      <trkpt lat="46.62338" lon="5.90784">
        <ele>770</ele>
        <time>2015-06-22T12:22:11Z</time>
      </trkpt>
      <trkpt lat="46.62305" lon="5.90755">
        <ele>767</ele>
        <time>2015-06-22T12:22:43Z</time>
      </trkpt>
      <trkpt lat="46.62298" lon="5.90741">
        <ele>766</ele>
        <time>2015-06-22T12:22:49Z</time>
      </trkpt>
      <trkpt lat="46.62272" lon="5.907">
        <ele>767</ele>
        <time>2015-06-22T12:23:20Z</time>
      </trkpt>
      <trkpt lat="46.62238" lon="5.90667">
        <ele>768</ele>
        <time>2015-06-22T12:23:52Z</time>
      </trkpt>
      <trkpt lat="46.62224" lon="5.90647">
        <ele>767</ele>
        <time>2015-06-22T12:24:07Z</time>
      </trkpt>
      <trkpt lat="46.62207" lon="5.90611">
        <ele>767</ele>
        <time>2015-06-22T12:24:30Z</time>
      </trkpt>
      <trkpt lat="46.62188" lon="5.9056">
        <ele>771</ele>
        <time>2015-06-22T12:25:01Z</time>
      </trkpt>
      <trkpt lat="46.62181" lon="5.90551">
        <ele>771</ele>
        <time>2015-06-22T12:25:09Z</time>
      </trkpt>
      <trkpt lat="46.62174" lon="5.90523">
        <ele>772</ele>
        <time>2015-06-22T12:25:24Z</time>
      </trkpt>
      <trkpt lat="46.62148" lon="5.90478">
        <ele>774</ele>
        <time>2015-06-22T12:25:56Z</time>
      </trkpt>
      <trkpt lat="46.62137" lon="5.90456">
        <ele>775</ele>
        <time>2015-06-22T12:26:12Z</time>
      </trkpt>
      <trkpt lat="46.62124" lon="5.90435">
        <ele>774</ele>
        <time>2015-06-22T12:26:28Z</time>
      </trkpt>
      <trkpt lat="46.62117" lon="5.90427">
        <ele>774</ele>
        <time>2015-06-22T12:26:37Z</time>
      </trkpt>
      <trkpt lat="46.62087" lon="5.90393">
        <ele>777</ele>
        <time>2015-06-22T12:27:11Z</time>
      </trkpt>
      <trkpt lat="46.6208" lon="5.90385">
        <ele>778</ele>
        <time>2015-06-22T12:27:20Z</time>
      </trkpt>
      <trkpt lat="46.62063" lon="5.90351">
        <ele>782</ele>
        <time>2015-06-22T12:27:54Z</time>
      </trkpt>
      <trkpt lat="46.62059" lon="5.9034">
        <ele>783</ele>
        <time>2015-06-22T12:28:04Z</time>
      </trkpt>
      <trkpt lat="46.62063" lon="5.90327">
        <ele>784</ele>
        <time>2015-06-22T12:28:15Z</time>
      </trkpt>
      <trkpt lat="46.62059" lon="5.90322">
        <ele>785</ele>
        <time>2015-06-22T12:28:33Z</time>
      </trkpt>
      <trkpt lat="46.62053" lon="5.90312">
        <ele>788</ele>
        <time>2015-06-22T12:28:54Z</time>
      </trkpt>
      <trkpt lat="46.62037" lon="5.90296">
        <ele>791</ele>
        <time>2015-06-22T12:29:12Z</time>
      </trkpt>
      <trkpt lat="46.62013" lon="5.90273">
        <ele>791</ele>
        <time>2015-06-22T12:29:47Z</time>
      </trkpt>
      <trkpt lat="46.62003" lon="5.90249">
        <ele>792</ele>
        <time>2015-06-22T12:30:01Z</time>
      </trkpt>
      <trkpt lat="46.61995" lon="5.90239">
        <ele>792</ele>
        <time>2015-06-22T12:30:10Z</time>
      </trkpt>
      <trkpt lat="46.61991" lon="5.90227">
        <ele>793</ele>
        <time>2015-06-22T12:30:25Z</time>
      </trkpt>
      <trkpt lat="46.61993" lon="5.90213">
        <ele>794</ele>
        <time>2015-06-22T12:30:36Z</time>
      </trkpt>
      <trkpt lat="46.61989" lon="5.90173">
        <ele>797</ele>
        <time>2015-06-22T12:31:00Z</time>
      </trkpt>
      <trkpt lat="46.61987" lon="5.9016">
        <ele>797</ele>
        <time>2015-06-22T12:31:08Z</time>
      </trkpt>
      <trkpt lat="46.61986" lon="5.90146">
        <ele>796</ele>
        <time>2015-06-22T12:31:17Z</time>
      </trkpt>
      <trkpt lat="46.61977" lon="5.90117">
        <ele>794</ele>
        <time>2015-06-22T12:31:46Z</time>
      </trkpt>
      <trkpt lat="46.61985" lon="5.90108">
        <ele>794</ele>
        <time>2015-06-22T12:31:53Z</time>
      </trkpt>
      <trkpt lat="46.61981" lon="5.90095">
        <ele>791</ele>
        <time>2015-06-22T12:32:05Z</time>
      </trkpt>
      <trkpt lat="46.61972" lon="5.90068">
        <ele>788</ele>
        <time>2015-06-22T12:32:19Z</time>
      </trkpt>
      <trkpt lat="46.61968" lon="5.90056">
        <ele>789</ele>
        <time>2015-06-22T12:32:27Z</time>
      </trkpt>
      <trkpt lat="46.61965" lon="5.90042">
        <ele>789</ele>
        <time>2015-06-22T12:32:37Z</time>
      </trkpt>
      <trkpt lat="46.61959" lon="5.9003">
        <ele>789</ele>
        <time>2015-06-22T12:32:45Z</time>
      </trkpt>
      <trkpt lat="46.61952" lon="5.90021">
        <ele>791</ele>
        <time>2015-06-22T12:32:52Z</time>
      </trkpt>
      <trkpt lat="46.61931" lon="5.89959">
        <ele>791</ele>
        <time>2015-06-22T12:33:29Z</time>
      </trkpt>
      <trkpt lat="46.6193" lon="5.89933">
        <ele>792</ele>
        <time>2015-06-22T12:33:54Z</time>
      </trkpt>
      <trkpt lat="46.6193" lon="5.89918">
        <ele>793</ele>
        <time>2015-06-22T12:34:04Z</time>
      </trkpt>
      <trkpt lat="46.61927" lon="5.89897">
        <ele>794</ele>
        <time>2015-06-22T12:34:13Z</time>
      </trkpt>
      <trkpt lat="46.61929" lon="5.89884">
        <ele>794</ele>
        <time>2015-06-22T12:34:18Z</time>
      </trkpt>
      <trkpt lat="46.6194" lon="5.8986">
        <ele>795</ele>
        <time>2015-06-22T12:34:31Z</time>
      </trkpt>
      <trkpt lat="46.61969" lon="5.89826">
        <ele>800</ele>
        <time>2015-06-22T12:35:03Z</time>
      </trkpt>
      <trkpt lat="46.61988" lon="5.89797">
        <ele>804</ele>
        <time>2015-06-22T12:35:28Z</time>
      </trkpt>
      <trkpt lat="46.61994" lon="5.89785">
        <ele>804</ele>
        <time>2015-06-22T12:35:37Z</time>
      </trkpt>
      <trkpt lat="46.62001" lon="5.89775">
        <ele>801</ele>
        <time>2015-06-22T12:35:45Z</time>
      </trkpt>
      <trkpt lat="46.62006" lon="5.89747">
        <ele>800</ele>
        <time>2015-06-22T12:36:01Z</time>
      </trkpt>
      <trkpt lat="46.62003" lon="5.89735">
        <ele>799</ele>
        <time>2015-06-22T12:36:07Z</time>
      </trkpt>
      <trkpt lat="46.6198" lon="5.89672">
        <ele>790</ele>
        <time>2015-06-22T12:36:43Z</time>
      </trkpt>
      <trkpt lat="46.61974" lon="5.89661">
        <ele>789</ele>
        <time>2015-06-22T12:36:50Z</time>
      </trkpt>
      <trkpt lat="46.61975" lon="5.89647">
        <ele>788</ele>
        <time>2015-06-22T12:36:57Z</time>
      </trkpt>
      <trkpt lat="46.61978" lon="5.89639">
        <ele>788</ele>
        <time>2015-06-22T12:36:59Z</time>
      </trkpt>
      <trkpt lat="46.61969" lon="5.8963">
        <ele>787</ele>
        <time>2015-06-22T12:37:11Z</time>
      </trkpt>
      <trkpt lat="46.61952" lon="5.89618">
        <ele>787</ele>
        <time>2015-06-22T12:37:29Z</time>
      </trkpt>
      <trkpt lat="46.61946" lon="5.89605">
        <ele>786</ele>
        <time>2015-06-22T12:37:35Z</time>
      </trkpt>
      <trkpt lat="46.61942" lon="5.89592">
        <ele>786</ele>
        <time>2015-06-22T12:37:40Z</time>
      </trkpt>
      <trkpt lat="46.61939" lon="5.89578">
        <ele>787</ele>
        <time>2015-06-22T12:37:45Z</time>
      </trkpt>
      <trkpt lat="46.61941" lon="5.89565">
        <ele>788</ele>
        <time>2015-06-22T12:37:59Z</time>
      </trkpt>
      <trkpt lat="46.61937" lon="5.89552">
        <ele>788</ele>
        <time>2015-06-22T12:38:07Z</time>
      </trkpt>
      <trkpt lat="46.61925" lon="5.89499">
        <ele>781</ele>
        <time>2015-06-22T12:38:43Z</time>
      </trkpt>
      <trkpt lat="46.61915" lon="5.89473">
        <ele>779</ele>
        <time>2015-06-22T12:38:56Z</time>
      </trkpt>
      <trkpt lat="46.6189" lon="5.89432">
        <ele>779</ele>
        <time>2015-06-22T12:39:30Z</time>
      </trkpt>
      <trkpt lat="46.61884" lon="5.89422">
        <ele>779</ele>
        <time>2015-06-22T12:39:38Z</time>
      </trkpt>
      <trkpt lat="46.61879" lon="5.89409">
        <ele>778</ele>
        <time>2015-06-22T12:39:44Z</time>
      </trkpt>
      <trkpt lat="46.61852" lon="5.8935">
        <ele>776</ele>
        <time>2015-06-22T12:40:21Z</time>
      </trkpt>
      <trkpt lat="46.61845" lon="5.8934">
        <ele>775</ele>
        <time>2015-06-22T12:40:29Z</time>
      </trkpt>
      <trkpt lat="46.6182" lon="5.89295">
        <ele>776</ele>
        <time>2015-06-22T12:41:00Z</time>
      </trkpt>
      <trkpt lat="46.61813" lon="5.89285">
        <ele>776</ele>
        <time>2015-06-22T12:41:10Z</time>
      </trkpt>
      <trkpt lat="46.61805" lon="5.89276">
        <ele>775</ele>
        <time>2015-06-22T12:41:20Z</time>
      </trkpt>
      <trkpt lat="46.61802" lon="5.89262">
        <ele>774</ele>
        <time>2015-06-22T12:41:27Z</time>
      </trkpt>
      <trkpt lat="46.61794" lon="5.89255">
        <ele>774</ele>
        <time>2015-06-22T12:41:33Z</time>
      </trkpt>
      <trkpt lat="46.61785" lon="5.89253">
        <ele>774</ele>
        <time>2015-06-22T12:41:43Z</time>
      </trkpt>
      <trkpt lat="46.61777" lon="5.89245">
        <ele>774</ele>
        <time>2015-06-22T12:41:52Z</time>
      </trkpt>
      <trkpt lat="46.61775" lon="5.89233">
        <ele>776</ele>
        <time>2015-06-22T12:42:23Z</time>
      </trkpt>
      <trkpt lat="46.61768" lon="5.89241">
        <ele>778</ele>
        <time>2015-06-22T12:45:08Z</time>
      </trkpt>
      <trkpt lat="46.61769" lon="5.89221">
        <ele>778</ele>
        <time>2015-06-22T12:46:04Z</time>
      </trkpt>
      <trkpt lat="46.61764" lon="5.89227">
        <ele>778</ele>
        <time>2015-06-22T12:47:08Z</time>
      </trkpt>
      <trkpt lat="46.61756" lon="5.89219">
        <ele>777</ele>
        <time>2015-06-22T12:47:22Z</time>
      </trkpt>
      <trkpt lat="46.61731" lon="5.89178">
        <ele>777</ele>
        <time>2015-06-22T12:47:48Z</time>
      </trkpt>
      <trkpt lat="46.61717" lon="5.89161">
        <ele>778</ele>
        <time>2015-06-22T12:48:07Z</time>
      </trkpt>
      <trkpt lat="46.61683" lon="5.89138">
        <ele>777</ele>
        <time>2015-06-22T12:48:39Z</time>
      </trkpt>
      <trkpt lat="46.61666" lon="5.89123">
        <ele>777</ele>
        <time>2015-06-22T12:48:53Z</time>
      </trkpt>
      <trkpt lat="46.6163" lon="5.89116">
        <ele>773</ele>
        <time>2015-06-22T12:49:22Z</time>
      </trkpt>
      <trkpt lat="46.6163" lon="5.891">
        <ele>772</ele>
        <time>2015-06-22T12:49:39Z</time>
      </trkpt>
      <trkpt lat="46.61635" lon="5.89072">
        <ele>772</ele>
        <time>2015-06-22T12:49:56Z</time>
      </trkpt>
      <trkpt lat="46.61639" lon="5.8906">
        <ele>771</ele>
        <time>2015-06-22T12:50:04Z</time>
      </trkpt>
      <trkpt lat="46.61651" lon="5.89005">
        <ele>772</ele>
        <time>2015-06-22T12:50:37Z</time>
      </trkpt>
      <trkpt lat="46.61666" lon="5.88987">
        <ele>773</ele>
        <time>2015-06-22T12:50:51Z</time>
      </trkpt>
      <trkpt lat="46.61703" lon="5.88978">
        <ele>775</ele>
        <time>2015-06-22T12:51:25Z</time>
      </trkpt>
      <trkpt lat="46.61712" lon="5.88977">
        <ele>775</ele>
        <time>2015-06-22T12:51:34Z</time>
      </trkpt>
      <trkpt lat="46.61721" lon="5.88982">
        <ele>777</ele>
        <time>2015-06-22T12:51:44Z</time>
      </trkpt>
      <trkpt lat="46.6173" lon="5.88984">
        <ele>777</ele>
        <time>2015-06-22T12:51:52Z</time>
      </trkpt>
      <trkpt lat="46.61748" lon="5.88994">
        <ele>777</ele>
        <time>2015-06-22T12:52:09Z</time>
      </trkpt>
      <trkpt lat="46.61775" lon="5.89007">
        <ele>779</ele>
        <time>2015-06-22T12:52:37Z</time>
      </trkpt>
      <trkpt lat="46.61782" lon="5.89006">
        <ele>779</ele>
        <time>2015-06-22T12:52:54Z</time>
      </trkpt>
      <trkpt lat="46.61789" lon="5.88997">
        <ele>778</ele>
        <time>2015-06-22T12:53:05Z</time>
      </trkpt>
      <trkpt lat="46.61788" lon="5.88985">
        <ele>774</ele>
        <time>2015-06-22T12:53:48Z</time>
      </trkpt>
      <trkpt lat="46.6179" lon="5.88981">
        <ele>774</ele>
        <time>2015-06-22T12:54:21Z</time>
      </trkpt>
      <trkpt lat="46.61798" lon="5.88971">
        <ele>774</ele>
        <time>2015-06-22T12:54:55Z</time>
      </trkpt>
      <trkpt lat="46.61802" lon="5.88966">
        <ele>773</ele>
        <time>2015-06-22T12:55:02Z</time>
      </trkpt>
      <trkpt lat="46.61806" lon="5.88963">
        <ele>773</ele>
        <time>2015-06-22T12:55:06Z</time>
      </trkpt>
      <trkpt lat="46.61826" lon="5.88931">
        <ele>776</ele>
        <time>2015-06-22T12:55:30Z</time>
      </trkpt>
      <trkpt lat="46.61828" lon="5.88917">
        <ele>776</ele>
        <time>2015-06-22T12:55:38Z</time>
      </trkpt>
      <trkpt lat="46.61835" lon="5.88877">
        <ele>778</ele>
        <time>2015-06-22T12:56:03Z</time>
      </trkpt>
      <trkpt lat="46.61834" lon="5.88836">
        <ele>779</ele>
        <time>2015-06-22T12:56:27Z</time>
      </trkpt>
      <trkpt lat="46.61839" lon="5.88824">
        <ele>779</ele>
        <time>2015-06-22T12:56:35Z</time>
      </trkpt>
      <trkpt lat="46.61845" lon="5.88814">
        <ele>779</ele>
        <time>2015-06-22T12:56:44Z</time>
      </trkpt>
      <trkpt lat="46.61846" lon="5.88787">
        <ele>780</ele>
        <time>2015-06-22T12:56:59Z</time>
      </trkpt>
      <trkpt lat="46.61841" lon="5.88761">
        <ele>782</ele>
        <time>2015-06-22T12:57:17Z</time>
      </trkpt>
      <trkpt lat="46.61837" lon="5.88749">
        <ele>782</ele>
        <time>2015-06-22T12:57:26Z</time>
      </trkpt>
      <trkpt lat="46.61838" lon="5.88732">
        <ele>782</ele>
        <time>2015-06-22T12:57:40Z</time>
      </trkpt>
      <trkpt lat="46.61843" lon="5.88719">
        <ele>782</ele>
        <time>2015-06-22T12:57:48Z</time>
      </trkpt>
      <trkpt lat="46.61839" lon="5.88705">
        <ele>781</ele>
        <time>2015-06-22T12:57:56Z</time>
      </trkpt>
      <trkpt lat="46.61835" lon="5.88693">
        <ele>781</ele>
        <time>2015-06-22T12:58:05Z</time>
      </trkpt>
      <trkpt lat="46.61831" lon="5.88667">
        <ele>784</ele>
        <time>2015-06-22T12:58:24Z</time>
      </trkpt>
      <trkpt lat="46.61824" lon="5.88641">
        <ele>784</ele>
        <time>2015-06-22T12:58:40Z</time>
      </trkpt>
      <trkpt lat="46.61818" lon="5.8863">
        <ele>783</ele>
        <time>2015-06-22T12:58:49Z</time>
      </trkpt>
      <trkpt lat="46.61812" lon="5.88605">
        <ele>783</ele>
        <time>2015-06-22T12:59:08Z</time>
      </trkpt>
      <trkpt lat="46.61814" lon="5.88576">
        <ele>783</ele>
        <time>2015-06-22T12:59:28Z</time>
      </trkpt>
      <trkpt lat="46.61807" lon="5.88538">
        <ele>782</ele>
        <time>2015-06-22T12:59:53Z</time>
      </trkpt>
      <trkpt lat="46.61809" lon="5.88524">
        <ele>783</ele>
        <time>2015-06-22T13:00:04Z</time>
      </trkpt>
      <trkpt lat="46.61809" lon="5.8851">
        <ele>783</ele>
        <time>2015-06-22T13:00:12Z</time>
      </trkpt>
      <trkpt lat="46.61811" lon="5.88497">
        <ele>783</ele>
        <time>2015-06-22T13:00:20Z</time>
      </trkpt>
      <trkpt lat="46.61807" lon="5.88483">
        <ele>783</ele>
        <time>2015-06-22T13:00:29Z</time>
      </trkpt>
      <trkpt lat="46.61815" lon="5.88457">
        <ele>784</ele>
        <time>2015-06-22T13:00:49Z</time>
      </trkpt>
      <trkpt lat="46.61813" lon="5.88444">
        <ele>783</ele>
        <time>2015-06-22T13:01:04Z</time>
      </trkpt>
      <trkpt lat="46.61814" lon="5.8843">
        <ele>783</ele>
        <time>2015-06-22T13:01:14Z</time>
      </trkpt>
      <trkpt lat="46.61817" lon="5.88417">
        <ele>784</ele>
        <time>2015-06-22T13:01:24Z</time>
      </trkpt>
      <trkpt lat="46.61815" lon="5.88404">
        <ele>784</ele>
        <time>2015-06-22T13:01:34Z</time>
      </trkpt>
      <trkpt lat="46.61816" lon="5.88391">
        <ele>785</ele>
        <time>2015-06-22T13:01:44Z</time>
      </trkpt>
      <trkpt lat="46.61821" lon="5.8838">
        <ele>786</ele>
        <time>2015-06-22T13:01:57Z</time>
      </trkpt>
      <trkpt lat="46.61856" lon="5.88351">
        <ele>788</ele>
        <time>2015-06-22T13:02:39Z</time>
      </trkpt>
      <trkpt lat="46.6188" lon="5.88308">
        <ele>784</ele>
        <time>2015-06-22T13:03:17Z</time>
      </trkpt>
      <trkpt lat="46.61887" lon="5.88299">
        <ele>781</ele>
        <time>2015-06-22T13:03:30Z</time>
      </trkpt>
      <trkpt lat="46.61893" lon="5.88296">
        <ele>781</ele>
        <time>2015-06-22T13:03:32Z</time>
      </trkpt>
      <trkpt lat="46.61898" lon="5.88292">
        <ele>781</ele>
        <time>2015-06-22T13:03:39Z</time>
      </trkpt>
      <trkpt lat="46.619" lon="5.88265">
        <ele>778</ele>
        <time>2015-06-22T13:04:01Z</time>
      </trkpt>
      <trkpt lat="46.61897" lon="5.88251">
        <ele>777</ele>
        <time>2015-06-22T13:04:11Z</time>
      </trkpt>
      <trkpt lat="46.619" lon="5.88237">
        <ele>777</ele>
        <time>2015-06-22T13:04:19Z</time>
      </trkpt>
      <trkpt lat="46.61905" lon="5.88226">
        <ele>776</ele>
        <time>2015-06-22T13:04:26Z</time>
      </trkpt>
      <trkpt lat="46.61909" lon="5.88184">
        <ele>777</ele>
        <time>2015-06-22T13:04:55Z</time>
      </trkpt>
      <trkpt lat="46.61908" lon="5.8817">
        <ele>777</ele>
        <time>2015-06-22T13:05:06Z</time>
      </trkpt>
      <trkpt lat="46.61901" lon="5.88161">
        <ele>776</ele>
        <time>2015-06-22T13:05:14Z</time>
      </trkpt>
      <trkpt lat="46.61893" lon="5.88153">
        <ele>776</ele>
        <time>2015-06-22T13:05:23Z</time>
      </trkpt>
      <trkpt lat="46.61885" lon="5.88154">
        <ele>776</ele>
        <time>2015-06-22T13:05:33Z</time>
      </trkpt>
      <trkpt lat="46.6188" lon="5.88157">
        <ele>775</ele>
        <time>2015-06-22T13:05:39Z</time>
      </trkpt>
      <trkpt lat="46.6186" lon="5.88165">
        <ele>774</ele>
        <time>2015-06-22T13:06:06Z</time>
      </trkpt>
      <trkpt lat="46.61856" lon="5.8817">
        <ele>774</ele>
        <time>2015-06-22T13:06:11Z</time>
      </trkpt>
      <trkpt lat="46.61846" lon="5.88172">
        <ele>772</ele>
        <time>2015-06-22T13:06:22Z</time>
      </trkpt>
      <trkpt lat="46.61841" lon="5.8817">
        <ele>772</ele>
        <time>2015-06-22T13:06:27Z</time>
      </trkpt>
      <trkpt lat="46.61828" lon="5.88163">
        <ele>774</ele>
        <time>2015-06-22T13:06:46Z</time>
      </trkpt>
      <trkpt lat="46.61828" lon="5.88156">
        <ele>774</ele>
        <time>2015-06-22T13:07:28Z</time>
      </trkpt>
      <trkpt lat="46.61828" lon="5.88135">
        <ele>769</ele>
        <time>2015-06-22T13:07:42Z</time>
      </trkpt>
      <trkpt lat="46.61829" lon="5.88128">
        <ele>769</ele>
        <time>2015-06-22T13:07:46Z</time>
      </trkpt>
      <trkpt lat="46.61829" lon="5.88122">
        <ele>769</ele>
        <time>2015-06-22T13:07:55Z</time>
      </trkpt>
      <trkpt lat="46.61827" lon="5.88122">
        <ele>769</ele>
        <time>2015-06-22T13:08:01Z</time>
      </trkpt>
      <trkpt lat="46.61839" lon="5.88126">
        <ele>771</ele>
        <time>2015-06-22T13:08:54Z</time>
      </trkpt>
      <trkpt lat="46.61843" lon="5.88118">
        <ele>771</ele>
        <time>2015-06-22T13:08:58Z</time>
      </trkpt>
      <trkpt lat="46.61852" lon="5.88124">
        <ele>775</ele>
        <time>2015-06-22T13:09:08Z</time>
      </trkpt>
      <trkpt lat="46.6186" lon="5.88132">
        <ele>775</ele>
        <time>2015-06-22T13:09:18Z</time>
      </trkpt>
      <trkpt lat="46.61884" lon="5.88153">
        <ele>774</ele>
        <time>2015-06-22T13:09:45Z</time>
      </trkpt>
      <trkpt lat="46.61909" lon="5.88172">
        <ele>774</ele>
        <time>2015-06-22T13:10:21Z</time>
      </trkpt>
    </trkseg>
  </trk>
</gpx>